Flight Track Log - Related Links

Times and Time Zones

All times are in EST time to prevent confusion due to time zone crossing. See the SIA21 flight status page for this flight to view local times or setup timezone preferences in your user account.


Time Position Orientation Groundspeed Altitude Reporting Facility
EST Latitude Longitude Course Direction KTS MPH feet Rate Location/Type
Sat 11:17:32 PM 40.7395 -74.1224 37° Northeast 194 223 2,000  Level FlightAware ADS-B
Sat 11:17:48 PM 40.7518 -74.1108 36° Northeast 208 239 2,300 1,034 Climbing FlightAware ADS-B
Sat 11:18:01 PM 40.7626 -74.1008 35° Northeast 222 255 2,500 1,034 Climbing FlightAware ADS-B
Sat 11:18:17 PM 40.7762 -74.0886 34° Northeast 238 274 2,800 1,350 Climbing FlightAware ADS-B
Sat 11:18:41 PM 40.7991 -74.0677 35° Northeast 247 284 3,400 1,579 Climbing FlightAware ADS-B
Sat 11:18:55 PM 40.8130 -74.0549 35° Northeast 264 304 3,800 1,750 Climbing FlightAware ADS-B
Sat 11:19:05 PM 40.8232 -74.0462 33° Northeast 268 308 4,100 1,800 Climbing FlightAware ADS-B
Sat 11:19:15 PM 40.8337 -74.0380 31° Northeast 271 312 4,400 2,357 Climbing FlightAware ADS-B
Sat 11:19:33 PM 40.8538 -74.0241 28° Northeast 274 315 5,200 2,857 Climbing FlightAware ADS-B
Sat 11:19:36 PM 40.8574 -74.0214 30° Northeast 275 316 5,400 3,273 Climbing FlightAware ADS-B
Sat 11:19:44 PM 40.8661 -74.0139 33° Northeast 276 318 5,800 2,667 Climbing FlightAware ADS-B
Sat 11:19:54 PM 40.8761 -74.0035 38° Northeast 282 325 6,200 2,308 Climbing FlightAware ADS-B
Sat 11:20:10 PM 40.8913 -73.9857 42° Northeast 287 330 6,800 2,571 Climbing FlightAware ADS-B
Sat 11:20:29 PM 40.9104 -73.9620 43° Northeast 289 333 7,700 2,743 Climbing FlightAware ADS-B
Sat 11:20:45 PM 40.9267 -73.9424 42° Northeast 290 334 8,400 2,710 Climbing FlightAware ADS-B
Sat 11:21:00 PM 40.9415 -73.9246 42° Northeast 288 331 9,100 2,438 Climbing FlightAware ADS-B
Sat 11:21:17 PM 40.9586 -73.9048 41° Northeast 295 339 9,700 1,625 Climbing FlightAware ADS-B
Sat 11:21:48 PM 40.9917 -73.8676 40° Northeast 315 362 10,400 1,258 Climbing FlightAware ADS-B
Sat 11:22:19 PM 41.0274 -73.8282 40° Northeast 339 390 11,000 1,091 Climbing FlightAware ADS-B
Sat 11:22:54 PM 41.0558 -73.7964 40° Northeast 362 417 11,600 1,472 Climbing FlightAware ADS-B (KSNC)
Sat 11:24:05 PM 41.1664 -73.6705 41° Northeast 397 457 13,600 1,663 Climbing FlightAware ADS-B (KSNC)
Sat 11:24:35 PM 41.2102 -73.6206 41° Northeast 409 471 14,400 1,671 Climbing FlightAware ADS-B (KSNC)
Sat 11:25:24 PM 41.2823 -73.5392 40° Northeast 418 481 15,800 1,595 Climbing FlightAware ADS-B (KSNC)
Sat 11:25:54 PM 41.3265 -73.4880 41° Northeast 429 494 16,500 1,440 Climbing FlightAware ADS-B (KSNC)
Sat 11:26:39 PM 41.3944 -73.4112 40° Northeast 443 510 17,600 1,658 Climbing FlightAware ADS-B (KSNC)
Sat 11:27:10 PM 41.4432 -73.3554 41° Northeast 449 517 18,600 1,562 Climbing FlightAware ADS-B (KSNC)
Sat 11:27:52 PM 41.5170 -73.2994 30° Northeast 425 489 19,500 1,200 Climbing FlightAware ADS-B (KSNC)
Sat 11:28:15 PM 41.5617 -73.2948 North 411 473 19,900 1,260 Climbing FlightAware ADS-B (KSNC)
Sat 11:29:32 PM 41.7127 -73.3078 356° North 433 498 21,600 1,333 Climbing FlightAware ADS-B (KSNC)
Sat 11:30:03 PM 41.7529 -73.3104 357° North 436 502 22,300 1,500 Climbing FlightAware ADS-B (KSNC)
Sat 11:30:36 PM 41.8263 -73.3153 357° North 442 509 23,200 1,301 Climbing FlightAware ADS-B (KSNC)
Sat 11:31:26 PM 41.9433 -73.3236 357° North 459 528 24,100 1,185 Climbing FlightAware ADS-B (KSNC)
Sat 11:31:57 PM 42.0093 -73.3280 357° North 459 528 24,800 1,099 Climbing FlightAware ADS-B (KSNC)
Sat 11:32:37 PM 42.0946 -73.3339 357° North 466 536 25,400 1,019 Climbing FlightAware ADS-B (KSNC)
Sat 11:33:43 PM 42.2160 -73.3425 357° North 479 551 26,600 1,260 Climbing FlightAware ADS-B (KSNC)
Sat 11:34:17 PM 42.3098 -73.3489 357° North 481 554 27,500 1,183 Climbing FlightAware ADS-B (KSNC)
Sat 11:34:54 PM 42.3962 -73.3551 357° North 488 562 28,000 1,433 Climbing FlightAware ADS-B (KSNC)
Sat 11:35:24 PM 42.4649 -73.3597 357° North 477 549 29,100 1,636 Climbing FlightAware ADS-B (KSNC)
Sat 11:36:44 PM 42.6392 -73.3720 357° North 467 537 31,000 857 Climbing FlightAware ADS-B (KSNC)
Sat 11:37:37 PM 42.7542 -73.3805 357° North 484 557 31,000  Level FlightAware ADS-B (KBKF)
Sat 11:42:25 PM 43.3984 -73.4266 357° North 485 558 31,000  Level FlightAware ADS-B (KBKF)
Sat 11:42:36 PM 43.4260 -73.4290 356° North 486 559 31,000  Level FlightAware ADS-B
Sat 11:43:06 PM 43.4940 -73.4340 357° North 486 559 31,000  Level FlightAware ADS-B
Sat 11:43:54 PM 43.5980 -73.4410 357° North 481 554 31,000  Level FlightAware ADS-B
Sat 11:44:29 PM 43.6810 -73.4470 357° North 490 564 31,000  Level FlightAware ADS-B
Sat 11:45:02 PM 43.7530 -73.4530 357° North 489 563 31,000  Level FlightAware ADS-B
Sat 11:45:42 PM 43.8410 -73.4590 357° North 488 562 31,000  Level FlightAware ADS-B
Sat 11:46:12 PM 43.9090 -73.4640 357° North 491 565 31,000  Level FlightAware ADS-B
Sat 11:46:48 PM 43.9920 -73.4700 357° North 494 568 31,000  Level FlightAware ADS-B
Sat 11:47:24 PM 44.0720 -73.4760 357° North 495 570 31,000  Level FlightAware ADS-B
Sat 11:48:00 PM 44.1490 -73.4820 357° North 496 571 31,000  Level FlightAware ADS-B
Sat 11:48:36 PM 44.2410 -73.4890 357° North 498 573 31,000  Level FlightAware ADS-B
Sat 11:49:30 PM 44.3650 -73.4980 357° North 500 575 31,000  Level FlightAware ADS-B
Sat 11:50:05 PM 44.4440 -73.5040 357° North 493 567 31,000  Level FlightAware ADS-B
Sat 11:50:43 PM 44.5280 -73.5110 357° North 486 559 31,000  Level FlightAware ADS-B
Sat 11:51:18 PM 44.6100 -73.5170 357° North 500 575 31,000  Level FlightAware ADS-B
Sat 11:51:54 PM 44.6900 -73.5260 355° North 490 564 31,000  Level FlightAware ADS-B
Sat 11:52:24 PM 44.7580 -73.5450 349° North 482 555 31,000  Level FlightAware ADS-B
Sat 11:53:00 PM 44.8290 -73.5660 348° North 488 562 31,000  Level FlightAware ADS-B
Sat 11:53:30 PM 44.8910 -73.5840 348° North 484 557 31,000  Level FlightAware ADS-B
Sat 11:54:06 PM 44.9510 -73.6020 348° North 480 552 31,000  Level FlightAware ADS-B
Sat 11:54:36 PM 45.0040 -73.6140 351° North 492 566 31,000  Level FlightAware ADS-B
Sat 11:55:06 PM 45.0600 -73.6200 356° North 497 572 31,000 167 Level FlightAware ADS-B
Sat 11:55:48 PM 45.1550 -73.6300 356° North 493 567 31,200 1,099 Climbing FlightAware ADS-B
Sat 11:56:17 PM 45.2130 -73.6360 356° North 476 548 32,300 1,182 Climbing FlightAware ADS-B
Sat 11:56:54 PM 45.2850 -73.6450 355° North 482 555 32,500 560 Climbing FlightAware ADS-B
Sat 11:57:32 PM 45.4350 -73.6620 355° North 484 557 33,000 405 Climbing FlightAware ADS-B
Sat 11:58:08 PM 45.5120 -73.6710 355° North 485 558 33,000  Level FlightAware ADS-B
Sat 11:58:44 PM 45.5780 -73.6790 355° North 486 559 33,000  Level FlightAware ADS-B
Sat 11:59:13 PM 45.6360 -73.6850 356° North 488 562 33,000  Level FlightAware ADS-B
Sat 11:59:44 PM 45.6970 -73.6920 355° North 488 562 33,000  Level FlightAware ADS-B
Sun 12:00:20 AM 45.7570 -73.6990 355° North 488 562 33,000  Level FlightAware ADS-B
Sun 12:00:50 AM 45.8090 -73.7050 355° North 489 563 33,000  Level FlightAware ADS-B
Sun 12:01:21 AM 45.8620 -73.7120 355° North 485 558 33,000  Level FlightAware ADS-B
Sun 12:01:49 AM 45.9080 -73.7170 356° North 481 554 33,000  Level FlightAware ADS-B
Sun 12:02:56 AM 46.1430 -73.7450 355° North 475 547 33,000  Level FlightAware ADS-B
Sun 12:03:44 AM 46.2670 -73.7590 356° North 473 544 33,000  Level FlightAware ADS-B
Sun 12:04:14 AM 46.3190 -73.7650 355° North 473 544 33,000  Level FlightAware ADS-B
Sun 12:04:49 AM 46.3840 -73.7730 355° North 470 541 33,000  Level FlightAware ADS-B
Sun 12:05:20 AM 46.4360 -73.7790 355° North 469 540 33,000  Level FlightAware ADS-B
Sun 12:05:56 AM 46.5030 -73.7870 355° North 469 540 33,000  Level FlightAware ADS-B
Sun 12:06:26 AM 46.5630 -73.7950 355° North 470 541 33,000  Level FlightAware ADS-B
Sun 12:07:03 AM 46.6350 -73.8030 356° North 470 541 33,000  Level FlightAware ADS-B
Sun 12:07:31 AM 46.6880 -73.8100 355° North 468 539 33,000  Level FlightAware ADS-B
Sun 12:08:04 AM 46.7350 -73.8150 356° North 467 537 33,000  Level FlightAware ADS-B
Sun 12:09:05 AM 46.8640 -73.8310 355° North 466 536 33,000  Level FlightAware ADS-B
Sun 12:09:42 AM 46.9390 -73.8400 355° North 466 536 33,000  Level FlightAware ADS-B
Sun 12:10:17 AM 47.0100 -73.8490 355° North 464 534 33,000  Level FlightAware ADS-B
Sun 12:10:55 AM 47.0740 -73.8570 355° North 467 537 33,000  Level FlightAware ADS-B
Sun 12:12:01 AM 47.2180 -73.8750 355° North 469 540 33,000  Level FlightAware ADS-B
Sun 12:12:52 AM 47.4333 -73.8833 355° North 460 529 33,000  Level Montreal Center
Sun 12:13:52 AM 47.5667 -73.9000 355° North 460 529 33,000  Level Montreal Center
Sun 12:14:52 AM 47.6833 -73.9167 355° North 470 541 33,000  Level Montreal Center
Sun 12:15:52 AM 47.8167 -73.9333 355° North 460 529 33,000  Level Montreal Center
Sun 12:16:52 AM 47.9500 -73.9667 350° North 460 529 33,000  Level Montreal Center
Sun 12:17:52 AM 48.0667 -73.9833 355° North 460 529 33,000  Level Montreal Center
Sun 12:18:52 AM 48.2167 -74.0000 356° North 460 529 33,000  Level Montreal Center
Sun 12:19:52 AM 48.3333 -74.0000 360° North 460 529 33,000  Level Montreal Center
Sun 12:20:52 AM 48.4667 -74.0167 355° North 460 529 33,000  Level Montreal Center
Sun 12:21:52 AM 48.6000 -74.0333 355° North 460 529 33,000  Level Montreal Center
Sun 12:22:52 AM 48.7333 -74.0500 355° North 460 529 33,000  Level Montreal Center
Sun 12:23:52 AM 48.8500 -74.0833 349° North 460 529 33,000  Level Montreal Center
Sun 12:24:52 AM 48.9833 -74.1000 355° North 460 529 33,000  Level Montreal Center
Sun 12:25:52 AM 49.1000 -74.1167 355° North 460 529 33,000  Level Montreal Center
Sun 12:26:52 AM 49.2333 -74.1333 355° North 460 529 33,000  Level Montreal Center
Sun 12:27:52 AM 49.3667 -74.1333 360° North 470 541 33,000  Level Montreal Center
Sun 12:28:52 AM 49.5000 -74.1500 355° North 470 541 33,000  Level Montreal Center
Sun 12:29:52 AM 49.6333 -74.1667 355° North 470 541 33,000  Level Montreal Center
Sun 12:30:52 AM 49.7667 -74.2000 351° North 480 552 33,000  Level Montreal Center
Sun 12:31:52 AM 49.9000 -74.2167 355° North 490 564 33,000  Level Montreal Center
Sun 12:33:13 AM 50.0667 -74.2333 356° North 500 575 33,000  Level Montreal Center
Sun 12:34:13 AM 50.2000 -74.2500 355° North 480 552 33,000  Level Montreal Center
Sun 12:35:13 AM 50.3333 -74.2833 351° North 470 541 33,000  Level Montreal Center
Sun 12:36:13 AM 50.4667 -74.3000 355° North 470 541 33,000  Level Montreal Center
Sun 12:37:13 AM 50.6000 -74.3167 355° North 470 541 33,000  Level Montreal Center
Sun 12:38:13 AM 50.7333 -74.3500 351° North 470 541 33,000  Level Montreal Center
Sun 12:39:13 AM 50.8667 -74.3333 North 470 541 33,000  Level Montreal Center
Sun 12:40:13 AM 50.9833 -74.3667 350° North 480 552 33,000  Level Montreal Center
Sun 12:41:13 AM 51.1333 -74.3833 356° North 470 541 33,000  Level Montreal Center
Sun 12:42:13 AM 51.2667 -74.4000 356° North 470 541 33,000  Level Montreal Center
Sun 12:43:13 AM 51.4000 -74.4333 351° North 470 541 33,000  Level Montreal Center
Sun 12:44:13 AM 51.5333 -74.4500 356° North 470 541 33,000  Level Montreal Center
Sun 12:45:13 AM 51.6667 -74.4667 356° North 480 552 33,000  Level Montreal Center
Sun 12:46:13 AM 51.8000 -74.5000 351° North 490 564 33,000  Level Montreal Center
Sun 12:47:13 AM 51.9333 -74.5167 356° North 490 564 33,000  Level Montreal Center
Sun 12:48:13 AM 52.0667 -74.5167 360° North 480 552 33,000  Level Montreal Center
Sun 12:49:13 AM 52.2000 -74.5333 356° North 490 564 33,000  Level Montreal Center
Sun 12:50:13 AM 52.3333 -74.5667 351° North 480 552 33,000  Level Montreal Center
Sun 12:51:13 AM 52.4667 -74.5833 356° North 480 552 33,000  Level Montreal Center
Sun 12:52:13 AM 52.6167 -74.6000 356° North 490 564 33,000  Level Montreal Center
Sun 12:53:13 AM 52.7500 -74.6333 351° North 490 564 33,000  Level Montreal Center
Sun 12:54:13 AM 52.8833 -74.6500 356° North 490 564 33,000  Level Montreal Center
Sun 12:55:13 AM 53.0167 -74.6833 351° North 490 564 33,000  Level Montreal Center
Sun 12:56:13 AM 53.1500 -74.7000 356° North 490 564 33,000  Level Montreal Center
Sun 12:57:13 AM 53.2833 -74.7167 356° North 490 564 33,000  Level Montreal Center
Sun 12:58:13 AM 53.4333 -74.7500 352° North 490 564 33,000  Level Montreal Center
Sun 12:59:13 AM 53.5667 -74.7667 356° North 490 564 33,000  Level Montreal Center
Sun 01:00:13 AM 53.6833 -74.7667 360° North 490 564 33,000  Level Montreal Center
Sun 01:01:13 AM 53.8333 -74.8000 353° North 490 564 33,000  Level Montreal Center
Sun 01:02:13 AM 53.9667 -74.8167 356° North 490 564 33,000  Level Montreal Center
Sun 01:03:13 AM 54.1167 -74.8500 353° North 490 564 33,000  Level Montreal Center
Sun 01:04:13 AM 54.2500 -74.8667 356° North 490 564 33,000  Level Montreal Center
Sun 01:05:13 AM 54.4000 -74.9000 353° North 490 564 33,000  Level Montreal Center
Sun 01:06:13 AM 54.5333 -74.9167 356° North 500 575 33,000  Level Montreal Center
Sun 01:07:13 AM 54.6667 -74.9500 352° North 490 564 33,000  Level Montreal Center
Sun 01:08:13 AM 54.8000 -74.9667 356° North 500 575 33,000  Level Montreal Center
Sun 01:09:13 AM 54.9500 -75.0000 353° North 490 564 33,000  Level Montreal Center
Sun 01:10:13 AM 55.0667 -75.0167 355° North 480 552 33,000  Level Montreal Center
Sun 01:11:13 AM 55.2167 -75.0500 353° North 500 575 33,000  Level Montreal Center
Sun 01:12:13 AM 55.3500 -75.0667 356° North 500 575 33,000  Level Montreal Center
Sun 01:13:13 AM 55.4833 -75.1000 352° North 490 564 33,000  Level Montreal Center
Sun 01:14:13 AM 55.6333 -75.1333 353° North 510 587 33,000  Level Montreal Center
Sun 01:15:13 AM 55.7833 -75.1167 North 490 564 33,000  Level Montreal Center
Sun 01:16:13 AM 55.9167 -75.1500 352° North 500 575 33,000  Level Montreal Center
Sun 01:17:13 AM 56.0500 -75.1833 352° North 500 575 33,000  Level Montreal Center
Sun 01:18:13 AM 56.2000 -75.2000 356° North 500 575 33,000  Level Montreal Center
Sun 01:19:13 AM 56.3333 -75.2333 352° North 510 587 33,000  Level Montreal Center
Sun 01:20:13 AM 56.4667 -75.2667 352° North 500 575 33,000  Level Montreal Center
Sun 01:22:13 AM 56.7500 -75.3167 354° North 500 575 33,000  Level Montreal Center
Sun 01:23:13 AM 56.8833 -75.3500 352° North 510 587 33,000  Level Montreal Center
Sun 01:24:13 AM 57.0333 -75.3667 357° North 510 587 33,000  Level Montreal Center
Sun 01:25:13 AM 57.1833 -75.4000 353° North 500 575 33,000  Level Montreal Center
Sun 01:26:13 AM 57.3167 -75.4333 352° North 510 587 33,000  Level Montreal Center
Sun 01:27:13 AM 57.4667 -75.4667 353° North 510 587 33,000  Level Montreal Center
Sun 01:28:13 AM 57.6000 -75.4833 356° North 510 587 33,000  Level Montreal Center
Sun 01:29:13 AM 57.7500 -75.5167 353° North 510 587 33,000  Level Montreal Center
Sun 01:30:13 AM 57.8833 -75.5500 352° North 510 587 33,000  Level Montreal Center
Sun 01:30:50 AM 57.9333 -75.4333 51° Northeast 520 598 33,000  Level Edmonton Center
Sun 01:31:50 AM 58.0833 -75.4500 357° North 510 587 33,000  Level Edmonton Center
Sun 01:32:50 AM 58.2167 -75.4833 352° North 520 598 33,000  Level Edmonton Center
Sun 01:33:50 AM 58.3500 -75.5167 353° North 520 598 33,000  Level Edmonton Center
Sun 01:34:50 AM 58.5167 -75.5500 354° North 520 598 33,000  Level Edmonton Center
Sun 01:35:50 AM 58.6500 -75.5667 356° North 520 598 33,000  Level Edmonton Center
Sun 01:36:50 AM 58.7833 -75.6167 349° North 520 598 33,000  Level Edmonton Center
Sun 01:37:50 AM 58.9333 -75.6167 360° North 520 598 33,000  Level Edmonton Center
Sun 01:38:50 AM 59.0833 -75.6667 350° North 520 598 33,000  Level Edmonton Center
Sun 01:39:50 AM 59.2167 -75.6833 356° North 520 598 33,000  Level Edmonton Center
Sun 01:40:50 AM 59.3667 -75.7167 354° North 520 598 33,000  Level Edmonton Center
Sun 01:41:50 AM 59.5000 -75.7333 356° North 520 598 33,000  Level Edmonton Center
Sun 01:42:50 AM 59.6500 -75.7833 350° North 520 598 33,000  Level Edmonton Center
Sun 01:43:50 AM 59.8000 -75.8000 357° North 520 598 33,000  Level Edmonton Center
Sun 01:44:50 AM 59.9333 -75.8500 349° North 520 598 33,000  Level Edmonton Center
Sun 01:45:50 AM 60.0833 -75.8167 North 520 598 33,000  Level Edmonton Center
Sun 01:46:50 AM 60.2167 -75.8000 North 520 598 33,000  Level Edmonton Center
Sun 01:47:50 AM 60.3667 -75.7667 North 520 598 33,000  Level Edmonton Center
Sun 01:48:50 AM 60.5000 -75.7500 North 520 598 33,000  Level Edmonton Center
Sun 01:49:50 AM 60.6500 -75.7167 North 520 598 33,000  Level Edmonton Center
Sun 01:50:50 AM 60.8000 -75.6833 North 520 598 33,000  Level Edmonton Center
Sun 01:51:50 AM 60.9500 -75.6500 North 520 598 33,000  Level Edmonton Center
Sun 01:52:50 AM 61.0833 -75.6333 North 520 598 33,000  Level Edmonton Center
Sun 01:53:50 AM 61.2333 -75.6000 North 520 598 33,000  Level Edmonton Center
Sun 01:54:50 AM 61.3667 -75.5833 North 520 598 33,000  Level Edmonton Center
Sun 01:55:50 AM 61.5167 -75.5833 360° North 530 610 33,000  Level Edmonton Center
Sun 01:56:50 AM 61.6667 -75.5500 North 520 598 33,000  Level Edmonton Center
Sun 01:57:50 AM 61.8167 -75.5167 North 520 598 33,000  Level Edmonton Center
Sun 01:58:50 AM 61.9667 -75.4833 North 520 598 33,000  Level Edmonton Center
Sun 01:59:50 AM 62.1000 -75.4500 North 520 598 33,000  Level Edmonton Center
Sun 02:00:50 AM 62.2500 -75.4333 North 530 610 33,000  Level Edmonton Center
Sun 02:01:50 AM 62.3833 -75.4000 North 530 610 33,000  Level Edmonton Center
Sun 02:02:50 AM 62.5500 -75.3500 North 520 598 33,000  Level Edmonton Center
Sun 02:03:50 AM 62.6833 -75.3167 North 520 598 33,000  Level Edmonton Center
Sun 02:04:50 AM 62.8333 -75.2833 North 530 610 33,000  Level Edmonton Center
Sun 02:05:50 AM 62.9667 -75.2500 North 520 598 33,000  Level Edmonton Center
Sun 02:06:50 AM 63.1167 -75.2333 North 530 610 33,000  Level Edmonton Center
Sun 02:07:50 AM 63.2667 -75.2333 360° North 530 610 33,000  Level Edmonton Center
Sun 02:08:50 AM 63.4167 -75.1833 North 530 610 33,000  Level Edmonton Center
Sun 02:09:50 AM 63.5667 -75.1500 North 530 610 33,000  Level Edmonton Center
Sun 02:10:50 AM 63.7000 -75.1167 North 530 610 33,000  Level Edmonton Center
Sun 02:11:50 AM 63.8667 -75.0667 North 530 610 33,000  Level Edmonton Center
Sun 02:12:50 AM 64.0000 -75.0333 North 530 610 33,000  Level Edmonton Center
Sun 02:13:50 AM 64.1500 -75.0333 360° North 530 610 33,000  Level Edmonton Center
Sun 02:14:50 AM 64.2833 -74.9667 12° North 520 598 33,000  Level Edmonton Center
Sun 02:15:50 AM 64.4333 -74.9167 North 530 610 33,000  Level Edmonton Center
Sun 02:16:50 AM 64.5833 -74.9167 360° North 530 610 33,000  Level Edmonton Center
Sun 02:17:50 AM 64.7333 -74.8667 North 530 610 33,000  Level Edmonton Center
Sun 02:18:50 AM 64.8833 -74.8167 North 540 621 33,000  Level Edmonton Center
Sun 02:19:50 AM 65.0333 -74.7833 North 530 610 33,000  Level Edmonton Center
Sun 02:20:50 AM 65.1833 -74.7667 North 530 610 33,000  Level Edmonton Center
Sun 02:21:50 AM 65.3167 -74.7333 North 550 633 33,000  Level Edmonton Center
Sun 02:22:50 AM 65.4833 -74.7167 North 570 656 33,000  Level Edmonton Center
Sun 02:23:50 AM 65.6333 -74.6833 North 540 621 33,000  Level Edmonton Center
Sun 02:24:50 AM 65.7833 -74.6667 North 540 621 33,000  Level Edmonton Center
Sun 02:25:50 AM 65.9167 -74.6333 North 540 621 33,000  Level Edmonton Center
Sun 02:26:50 AM 66.0833 -74.6167 North 540 621 33,000  Level Edmonton Center
Sun 02:27:50 AM 66.2333 -74.6000 North 540 621 33,000  Level Edmonton Center
Sun 02:28:50 AM 66.3667 -74.5667 North 540 621 33,000  Level Edmonton Center
Sun 02:29:50 AM 66.5333 -74.5333 North 540 621 33,000  Level Edmonton Center
Sun 02:30:50 AM 66.6833 -74.5000 North 540 621 33,000  Level Edmonton Center
Sun 02:31:50 AM 66.8333 -74.4833 North 540 621 33,000  Level Edmonton Center
Sun 02:32:50 AM 66.9833 -74.4333 North 540 621 33,000  Level Edmonton Center
Sun 02:33:50 AM 67.1333 -74.4167 North 540 621 33,000  Level Edmonton Center
Sun 02:34:50 AM 67.2833 -74.3500 10° North 550 633 33,000  Level Edmonton Center
Sun 02:35:50 AM 67.4333 -74.3500 360° North 550 633 33,000  Level Edmonton Center
Sun 02:36:50 AM 67.5833 -74.3333 North 550 633 33,000  Level Edmonton Center
Sun 02:37:50 AM 67.7500 -74.2667 North 550 633 33,000  Level Edmonton Center
Sun 02:38:50 AM 67.9000 -74.2667 360° North 540 621 33,000  Level Edmonton Center
Sun 02:39:50 AM 68.0500 -74.2000 North 550 633 33,000  Level Edmonton Center
Sun 02:40:50 AM 68.2000 -74.1833 North 540 621 33,000  Level Edmonton Center
Sun 02:41:50 AM 68.3500 -74.1833 360° North 540 621 33,000  Level Edmonton Center
Sun 02:42:50 AM 68.4833 -74.1333 North 540 621 33,000  Level Edmonton Center
Sun 02:43:50 AM 68.6500 -74.1000 North 540 621 33,000  Level Edmonton Center
Sun 02:44:50 AM 68.8000 -74.0500 North 540 621 33,000  Level Edmonton Center
Sun 02:45:50 AM 68.9333 -74.0333 North 540 621 33,000  Level Edmonton Center
Sun 02:46:50 AM 69.1000 -73.9500 10° North 540 621 33,000  Level Edmonton Center
Sun 02:47:50 AM 69.2500 -73.9500 360° North 530 610 33,000  Level Edmonton Center
Sun 02:48:50 AM 69.3833 -73.8833 10° North 530 610 33,000  Level Edmonton Center
Sun 02:49:50 AM 69.5333 -73.8833 360° North 530 610 33,000  Level Edmonton Center
Sun 02:50:50 AM 69.6833 -73.8167 North 530 610 33,000  Level Edmonton Center
Sun 02:51:50 AM 69.8333 -73.8000 North 520 598 33,000  Level Edmonton Center
Sun 02:52:50 AM 69.9667 -73.7500 North 530 610 33,000  Level Edmonton Center
Sun 02:53:50 AM 70.1000 -73.7000 North 530 610 33,000  Level Edmonton Center
Sun 02:54:50 AM 70.2667 -73.6167 10° North 530 610 33,000  Level Edmonton Center
Sun 02:55:50 AM 70.4000 -73.5000 16° North 530 610 33,000  Level Edmonton Center
Sun 02:56:50 AM 70.5500 -73.4167 10° North 530 610 33,000  Level Edmonton Center
Sun 02:57:50 AM 70.6833 -73.3167 14° North 530 610 33,000  Level Edmonton Center
Sun 02:58:50 AM 70.8167 -73.2500 North 530 610 33,000  Level Edmonton Center
Sun 02:59:50 AM 70.9667 -73.1167 16° North 530 610 33,000  Level Edmonton Center
Sun 03:00:50 AM 71.1167 -73.0500 North 530 610 33,000  Level Edmonton Center
Sun 03:01:50 AM 71.2500 -72.9167 18° North 530 610 33,000  Level Edmonton Center
Sun 03:02:50 AM 71.4000 -72.8500 North 530 610 33,000  Level Edmonton Center
Sun 03:03:50 AM 71.5333 -72.7000 20° North 520 598 33,000  Level Edmonton Center
Sun 03:04:50 AM 71.6833 -72.6333 North 520 598 33,000  Level Edmonton Center
Sun 03:05:50 AM 71.8167 -72.5167 15° North 520 598 33,000  Level Edmonton Center
Sun 03:06:50 AM 71.9667 -72.4167 12° North 520 598 33,000  Level Edmonton Center
Sun 03:07:50 AM 72.1000 -72.3333 11° North 520 598 33,000  Level Edmonton Center
Sun 03:08:50 AM 72.2333 -72.2000 17° North 520 598 33,000  Level Edmonton Center
Sun 03:09:50 AM 72.3833 -72.1000 11° North 520 598 33,000  Level Edmonton Center
Sun 03:11:00 AM 72.5359 -72.0052 11° North  Level FlightAware Approximate
Sun 03:18:00 AM 73.4504 -71.4010 11° North  Level FlightAware Approximate
Sun 03:19:00 AM 73.5808 -71.3093 11° North  Level FlightAware Approximate
Sun 03:20:00 AM 73.7113 -71.2162 11° North  Level FlightAware Approximate
Sun 03:21:00 AM 73.8417 -71.1217 11° North  Level FlightAware Approximate
Sun 03:22:00 AM 73.9732 -71.0150 14° North  Level FlightAware Approximate
Sun 03:23:00 AM 74.1022 -70.8958 14° North  Level FlightAware Approximate
Sun 03:24:00 AM 74.2310 -70.7738 14° North  Level FlightAware Approximate
Sun 03:25:00 AM 74.3597 -70.6496 15° North  Level FlightAware Approximate
Sun 03:26:00 AM 74.4884 -70.5234 15° North  Level FlightAware Approximate
Sun 03:27:00 AM 74.6170 -70.3952 15° North  Level FlightAware Approximate
Sun 03:28:00 AM 74.7455 -70.2648 15° North  Level FlightAware Approximate
Sun 03:29:00 AM 74.8739 -70.1323 15° North  Level FlightAware Approximate
Sun 03:30:00 AM 75.0023 -69.9984 10° North  Level FlightAware Approximate
Sun 03:31:00 AM 75.1335 -69.9103 10° North  Level FlightAware Approximate
Sun 03:32:00 AM 75.2645 -69.8207 10° North  Level FlightAware Approximate
Sun 03:33:00 AM 75.3956 -69.7295 10° North  Level FlightAware Approximate
Sun 03:34:00 AM 75.5265 -69.6366 10° North  Level FlightAware Approximate
Sun 03:35:00 AM 75.6575 -69.5422 10° North  Level FlightAware Approximate
Sun 03:36:00 AM 75.7884 -69.4460 10° North  Level FlightAware Approximate
Sun 03:37:00 AM 75.9193 -69.3480 10° North  Level FlightAware Approximate
Sun 03:38:00 AM 76.0501 -69.2483 10° North  Level FlightAware Approximate
Sun 03:39:00 AM 76.1809 -69.1467 11° North  Level FlightAware Approximate
Sun 03:40:00 AM 76.3117 -69.0432 11° North  Level FlightAware Approximate
Sun 03:41:00 AM 76.4424 -68.9377 11° North  Level FlightAware Approximate
Sun 03:42:00 AM 76.5731 -68.8303 11° North  Level FlightAware Approximate
Sun 03:43:00 AM 76.7037 -68.7207 11° North  Level FlightAware Approximate
Sun 03:44:00 AM 76.8343 -68.6090 11° North  Level FlightAware Approximate
Sun 03:45:00 AM 76.9648 -68.4952 11° North  Level FlightAware Approximate
Sun 03:46:00 AM 77.0953 -68.3790 11° North  Level FlightAware Approximate
Sun 03:47:00 AM 77.2257 -68.2606 11° North  Level FlightAware Approximate
Sun 03:48:00 AM 77.3560 -68.1397 11° North  Level FlightAware Approximate
Sun 03:49:00 AM 77.4864 -68.0163 12° North  Level FlightAware Approximate
Sun 03:50:00 AM 77.6166 -67.8904 12° North  Level FlightAware Approximate
Sun 03:51:00 AM 77.7468 -67.7619 12° North  Level FlightAware Approximate
Sun 03:52:00 AM 77.8769 -67.6307 12° North  Level FlightAware Approximate
Sun 03:53:00 AM 78.0070 -67.4966 12° North  Level FlightAware Approximate
Sun 03:54:00 AM 78.1370 -67.3596 12° North  Level FlightAware Approximate
Sun 03:55:00 AM 78.2670 -67.2197 12° North  Level FlightAware Approximate
Sun 03:56:00 AM 78.3968 -67.0767 12° North  Level FlightAware Approximate
Sun 03:57:00 AM 78.5266 -66.9305 13° North  Level FlightAware Approximate
Sun 03:58:00 AM 78.6563 -66.7809 13° North  Level FlightAware Approximate
Sun 03:59:00 AM 78.7860 -66.6280 13° North  Level FlightAware Approximate
Sun 04:00:00 AM 78.9156 -66.4715 13° North  Level FlightAware Approximate
Sun 04:01:00 AM 79.0451 -66.3114 13° North  Level FlightAware Approximate
Sun 04:02:00 AM 79.1745 -66.1475 13° North  Level FlightAware Approximate
Sun 04:03:00 AM 79.3038 -65.9797 14° North  Level FlightAware Approximate
Sun 04:04:00 AM 79.4330 -65.8078 14° North  Level FlightAware Approximate
Sun 04:05:00 AM 79.5621 -65.6317 14° North  Level FlightAware Approximate
Sun 04:06:00 AM 79.6911 -65.4513 14° North  Level FlightAware Approximate
Sun 04:07:00 AM 79.8200 -65.2663 14° North  Level FlightAware Approximate
Sun 04:08:00 AM 79.9489 -65.0767 14° North  Level FlightAware Approximate
Sun 04:09:00 AM 80.0778 -64.8869 14° North  Level FlightAware Approximate
Sun 04:10:00 AM 80.2067 -64.6955 14° North  Level FlightAware Approximate
Sun 04:11:00 AM 80.3356 -64.4989 14° North  Level FlightAware Approximate
Sun 04:12:00 AM 80.4643 -64.2971 15° North  Level FlightAware Approximate
Sun 04:13:00 AM 80.5929 -64.0898 15° North  Level FlightAware Approximate
Sun 04:14:00 AM 80.7214 -63.8769 15° North  Level FlightAware Approximate
Sun 04:15:00 AM 80.8497 -63.6580 15° North  Level FlightAware Approximate
Sun 04:16:00 AM 80.9779 -63.4329 15° North  Level FlightAware Approximate
Sun 04:17:00 AM 81.1060 -63.2014 16° North  Level FlightAware Approximate
Sun 04:18:00 AM 81.2339 -62.9632 16° North  Level FlightAware Approximate
Sun 04:19:00 AM 81.3617 -62.7181 16° North  Level FlightAware Approximate
Sun 04:20:00 AM 81.4893 -62.4656 16° North  Level FlightAware Approximate
Sun 04:21:00 AM 81.6168 -62.2054 17° North  Level FlightAware Approximate
Sun 04:22:00 AM 81.7441 -61.9374 17° North  Level FlightAware Approximate
Sun 04:23:00 AM 81.8711 -61.6610 17° North  Level FlightAware Approximate
Sun 04:24:00 AM 81.9980 -61.3758 17° North  Level FlightAware Approximate
Sun 04:25:00 AM 82.1247 -61.0816 18° North  Level FlightAware Approximate
Sun 04:26:00 AM 82.2512 -60.7778 18° North  Level FlightAware Approximate
Sun 04:27:00 AM 82.3775 -60.4640 18° North  Level FlightAware Approximate
Sun 04:28:00 AM 82.5035 -60.1397 19° North  Level FlightAware Approximate
Sun 04:29:00 AM 82.6293 -59.8043 19° North  Level FlightAware Approximate
Sun 04:30:00 AM 82.7548 -59.4575 19° North  Level FlightAware Approximate
Sun 04:31:00 AM 82.8801 -59.0984 20° North  Level FlightAware Approximate
Sun 04:32:00 AM 83.0050 -58.7266 20° North  Level FlightAware Approximate
Sun 04:33:00 AM 83.1297 -58.3413 20° North  Level FlightAware Approximate
Sun 04:34:00 AM 83.2540 -57.9419 21° North  Level FlightAware Approximate
Sun 04:35:00 AM 83.3780 -57.5276 21° North  Level FlightAware Approximate
Sun 04:36:00 AM 83.5017 -57.0976 21° North  Level FlightAware Approximate
Sun 04:37:00 AM 83.6249 -56.6510 22° Northeast  Level FlightAware Approximate
Sun 04:38:00 AM 83.7478 -56.1868 22° Northeast  Level FlightAware Approximate
Sun 04:39:00 AM 83.8703 -55.7042 23° Northeast  Level FlightAware Approximate
Sun 04:40:00 AM 83.9923 -55.2020 23° Northeast  Level FlightAware Approximate
Sun 04:41:00 AM 84.1138 -54.6791 24° Northeast  Level FlightAware Approximate
Sun 04:42:00 AM 84.2348 -54.1343 24° Northeast  Level FlightAware Approximate
Sun 04:43:00 AM 84.3553 -53.5663 25° Northeast  Level FlightAware Approximate
Sun 04:44:00 AM 84.4752 -52.9736 25° Northeast  Level FlightAware Approximate
Sun 04:45:00 AM 84.5945 -52.3548 26° Northeast  Level FlightAware Approximate
Sun 04:46:00 AM 84.7131 -51.7082 27° Northeast  Level FlightAware Approximate
Sun 04:47:00 AM 84.8310 -51.0321 27° Northeast  Level FlightAware Approximate
Sun 04:48:00 AM 84.9482 -50.3247 28° Northeast  Level FlightAware Approximate
Sun 04:49:00 AM 85.0664 -49.6221 26° Northeast  Level FlightAware Approximate
Sun 04:50:00 AM 85.1851 -48.9165 26° Northeast  Level FlightAware Approximate
Sun 04:51:00 AM 85.3031 -48.1753 27° Northeast  Level FlightAware Approximate
Sun 04:52:00 AM 85.4203 -47.3961 28° Northeast  Level FlightAware Approximate
Sun 04:53:00 AM 85.5366 -46.5763 29° Northeast  Level FlightAware Approximate
Sun 04:54:00 AM 85.6520 -45.7129 29° Northeast  Level FlightAware Approximate
Sun 04:55:00 AM 85.7663 -44.8027 30° Northeast  Level FlightAware Approximate
Sun 04:56:00 AM 85.8795 -43.8424 31° Northeast  Level FlightAware Approximate
Sun 04:57:00 AM 85.9914 -42.8282 32° Northeast  Level FlightAware Approximate
Sun 04:58:00 AM 86.1021 -41.7562 33° Northeast  Level FlightAware Approximate
Sun 04:59:00 AM 86.2113 -40.6221 34° Northeast  Level FlightAware Approximate
Sun 05:00:00 AM 86.3189 -39.4212 35° Northeast  Level FlightAware Approximate
Sun 05:01:00 AM 86.4248 -38.1487 37° Northeast  Level FlightAware Approximate
Sun 05:02:00 AM 86.5289 -36.7994 38° Northeast  Level FlightAware Approximate
Sun 05:03:00 AM 86.6309 -35.3675 39° Northeast  Level FlightAware Approximate
Sun 05:04:00 AM 86.7307 -33.8474 41° Northeast  Level FlightAware Approximate
Sun 05:05:00 AM 86.8281 -32.2329 42° Northeast  Level FlightAware Approximate
Sun 05:06:00 AM 86.9227 -30.5177 44° Northeast  Level FlightAware Approximate
Sun 05:07:00 AM 87.0145 -28.6955 45° Northeast  Level FlightAware Approximate
Sun 05:08:00 AM 87.1031 -26.7599 47° Northeast  Level FlightAware Approximate
Sun 05:09:00 AM 87.1881 -24.7049 49° Northeast  Level FlightAware Approximate
Sun 05:10:00 AM 87.2693 -22.5247 51° Northeast  Level FlightAware Approximate
Sun 05:11:00 AM 87.3463 -20.2147 53° Northeast  Level FlightAware Approximate
Sun 05:12:00 AM 87.4188 -17.7708 56° Northeast  Level FlightAware Approximate
Sun 05:13:00 AM 87.4863 -15.1909 58° Northeast  Level FlightAware Approximate
Sun 05:14:00 AM 87.5485 -12.4745 61° Northeast  Level FlightAware Approximate
Sun 05:15:00 AM 87.6048 -9.6236 64° Northeast  Level FlightAware Approximate
Sun 05:16:00 AM 87.6550 -6.6432 66° East  Level FlightAware Approximate
Sun 05:17:00 AM 87.6986 -3.5414 69° East  Level FlightAware Approximate
Sun 05:18:00 AM 87.7352 -0.3297 72° East  Level FlightAware Approximate
Sun 05:19:00 AM 87.7644 2.9766 76° East  Level FlightAware Approximate
Sun 05:20:00 AM 87.7860 6.3589 79° East  Level FlightAware Approximate
Sun 05:21:00 AM 87.7998 9.7957 82° East  Level FlightAware Approximate
Sun 05:22:00 AM 87.8056 13.2632 86° East  Level FlightAware Approximate
Sun 05:23:00 AM 87.8034 16.7363 89° East  Level FlightAware Approximate
Sun 05:24:00 AM 87.7931 20.1896 93° East  Level FlightAware Approximate
Sun 05:25:00 AM 87.7749 23.5987 96° East  Level FlightAware Approximate
Sun 05:26:00 AM 87.7489 26.9409 100° East  Level FlightAware Approximate
Sun 05:27:00 AM 87.7156 30.1963 103° East  Level FlightAware Approximate
Sun 05:28:00 AM 87.6750 33.3481 106° East  Level FlightAware Approximate
Sun 05:29:00 AM 87.6277 36.3831 109° East  Level FlightAware Approximate
Sun 05:30:00 AM 87.5740 39.2918 112° Southeast  Level FlightAware Approximate
Sun 05:31:00 AM 87.5144 42.0678 115° Southeast  Level FlightAware Approximate
Sun 05:32:00 AM 87.4492 44.7078 118° Southeast  Level FlightAware Approximate
Sun 05:33:00 AM 87.3788 47.2114 121° Southeast  Level FlightAware Approximate
Sun 05:34:00 AM 87.3037 49.5800 123° Southeast  Level FlightAware Approximate
Sun 05:35:00 AM 87.2243 51.8167 126° Southeast  Level FlightAware Approximate
Sun 05:36:00 AM 87.1409 53.9262 128° Southeast  Level FlightAware Approximate
Sun 05:37:00 AM 87.0539 55.9136 130° Southeast  Level FlightAware Approximate
Sun 05:38:00 AM 86.9635 57.7849 132° Southeast  Level FlightAware Approximate
Sun 05:39:00 AM 86.8701 59.5464 134° Southeast  Level FlightAware Approximate
Sun 05:40:00 AM 86.7738 61.2045 135° Southeast  Level FlightAware Approximate
Sun 05:41:00 AM 86.6751 62.7654 137° Southeast  Level FlightAware Approximate
Sun 05:42:00 AM 86.5740 64.2353 139° Southeast  Level FlightAware Approximate
Sun 05:43:00 AM 86.4708 65.6203 140° Southeast  Level FlightAware Approximate
Sun 05:44:00 AM 86.3657 66.9259 142° Southeast  Level FlightAware Approximate
Sun 05:45:00 AM 86.2588 68.1576 143° Southeast  Level FlightAware Approximate
Sun 05:46:00 AM 86.1503 69.3205 144° Southeast  Level FlightAware Approximate
Sun 05:47:00 AM 86.0403 70.4193 145° Southeast  Level FlightAware Approximate
Sun 05:48:00 AM 85.9289 71.4584 146° Southeast  Level FlightAware Approximate
Sun 05:49:00 AM 85.8162 72.4420 147° Southeast  Level FlightAware Approximate
Sun 05:50:00 AM 85.7024 73.3738 148° Southeast  Level FlightAware Approximate
Sun 05:51:00 AM 85.5875 74.2574 149° Southeast  Level FlightAware Approximate
Sun 05:52:00 AM 85.4716 75.0960 150° Southeast  Level FlightAware Approximate
Sun 05:53:00 AM 85.3548 75.8927 151° Southeast  Level FlightAware Approximate
Sun 05:54:00 AM 85.2371 76.6503 152° Southeast  Level FlightAware Approximate
Sun 05:55:00 AM 85.1187 77.3713 153° Southeast  Level FlightAware Approximate
Sun 05:56:00 AM 84.9995 78.0581 153° Southeast  Level FlightAware Approximate
Sun 05:57:00 AM 84.8796 78.7130 154° Southeast  Level FlightAware Approximate
Sun 05:58:00 AM 84.7591 79.3379 155° Southeast  Level FlightAware Approximate
Sun 05:59:00 AM 84.6380 79.9347 155° Southeast  Level FlightAware Approximate
Sun 06:00:00 AM 84.5164 80.5051 156° South  Level FlightAware Approximate
Sun 06:01:00 AM 84.3942 81.0509 156° South  Level FlightAware Approximate
Sun 06:02:00 AM 84.2716 81.5733 157° South  Level FlightAware Approximate
Sun 06:03:00 AM 84.1485 82.0740 157° South  Level FlightAware Approximate
Sun 06:04:00 AM 84.0250 82.5540 158° South  Level FlightAware Approximate
Sun 06:05:00 AM 83.9011 83.0146 158° South  Level FlightAware Approximate
Sun 06:06:00 AM 83.7768 83.4569 159° South  Level FlightAware Approximate
Sun 06:07:00 AM 83.6521 83.8819 159° South  Level FlightAware Approximate
Sun 06:08:00 AM 83.5271 84.2906 160° South  Level FlightAware Approximate
Sun 06:09:00 AM 83.4018 84.6839 160° South  Level FlightAware Approximate
Sun 06:10:00 AM 83.2762 85.0625 161° South  Level FlightAware Approximate
Sun 06:11:00 AM 83.1504 85.4273 161° South  Level FlightAware Approximate
Sun 06:12:00 AM 83.0242 85.7790 161° South  Level FlightAware Approximate
Sun 06:13:00 AM 82.8978 86.1183 162° South  Level FlightAware Approximate
Sun 06:14:00 AM 82.7712 86.4457 162° South  Level FlightAware Approximate
Sun 06:15:00 AM 82.6444 86.7619 162° South  Level FlightAware Approximate
Sun 06:16:00 AM 82.5173 87.0675 163° South  Level FlightAware Approximate
Sun 06:17:00 AM 82.3900 87.3628 163° South  Level FlightAware Approximate
Sun 06:18:00 AM 82.2626 87.6486 163° South  Level FlightAware Approximate
Sun 06:19:00 AM 82.1349 87.9250 163° South  Level FlightAware Approximate
Sun 06:20:00 AM 82.0071 88.1928 164° South  Level FlightAware Approximate
Sun 06:21:00 AM 81.8791 88.4521 164° South  Level FlightAware Approximate
Sun 06:22:00 AM 81.7510 88.7035 164° South  Level FlightAware Approximate
Sun 06:23:00 AM 81.6227 88.9472 165° South  Level FlightAware Approximate
Sun 06:24:00 AM 81.4942 89.1835 165° South  Level FlightAware Approximate
Sun 06:25:00 AM 81.3656 89.4129 165° South  Level FlightAware Approximate
Sun 06:26:00 AM 81.2369 89.6357 165° South  Level FlightAware Approximate
Sun 06:27:00 AM 81.1081 89.8520 165° South  Level FlightAware Approximate
Sun 06:28:00 AM 80.9791 90.0622 166° South  Level FlightAware Approximate
Sun 06:29:00 AM 80.8500 90.2665 166° South  Level FlightAware Approximate
Sun 06:30:00 AM 80.7208 90.4652 166° South  Level FlightAware Approximate
Sun 06:31:00 AM 80.5915 90.6584 166° South  Level FlightAware Approximate
Sun 06:32:00 AM 80.4621 90.8465 166° South  Level FlightAware Approximate
Sun 06:33:00 AM 80.3326 91.0295 167° South  Level FlightAware Approximate
Sun 06:34:00 AM 80.2030 91.2078 167° South  Level FlightAware Approximate
Sun 06:35:00 AM 80.0734 91.3815 167° South  Level FlightAware Approximate
Sun 06:36:00 AM 79.9436 91.5507 167° South  Level FlightAware Approximate
Sun 06:37:00 AM 79.8137 91.7157 167° South  Level FlightAware Approximate
Sun 06:38:00 AM 79.6838 91.8765 167° South  Level FlightAware Approximate
Sun 06:39:00 AM 79.5538 92.0334 168° South  Level FlightAware Approximate
Sun 06:40:00 AM 79.4237 92.1865 168° South  Level FlightAware Approximate
Sun 06:41:00 AM 79.2935 92.3359 168° South  Level FlightAware Approximate
Sun 06:42:00 AM 79.1633 92.4817 168° South  Level FlightAware Approximate
Sun 06:43:00 AM 79.0330 92.6242 168° South  Level FlightAware Approximate
Sun 06:44:00 AM 78.9026 92.7633 168° South  Level FlightAware Approximate
Sun 06:45:00 AM 78.7722 92.8992 169° South  Level FlightAware Approximate
Sun 06:46:00 AM 78.6417 93.0321 169° South  Level FlightAware Approximate
Sun 06:47:00 AM 78.5112 93.1619 169° South  Level FlightAware Approximate
Sun 06:48:00 AM 78.3806 93.2889 169° South  Level FlightAware Approximate
Sun 06:49:00 AM 78.2499 93.4131 169° South  Level FlightAware Approximate
Sun 06:50:00 AM 78.1192 93.5346 169° South  Level FlightAware Approximate
Sun 06:51:00 AM 77.9885 93.6535 169° South  Level FlightAware Approximate
Sun 06:52:00 AM 77.8577 93.7699 169° South  Level FlightAware Approximate
Sun 06:53:00 AM 77.7268 93.8838 170° South  Level FlightAware Approximate
Sun 06:54:00 AM 77.5959 93.9954 170° South  Level FlightAware Approximate
Sun 06:55:00 AM 77.4650 94.1046 170° South  Level FlightAware Approximate
Sun 06:56:00 AM 77.3340 94.2117 170° South  Level FlightAware Approximate
Sun 06:57:00 AM 77.2030 94.3166 170° South  Level FlightAware Approximate
Sun 06:58:00 AM 77.0719 94.4193 170° South  Level FlightAware Approximate
Sun 06:59:00 AM 76.9408 94.5201 170° South  Level FlightAware Approximate
Sun 07:00:00 AM 76.8096 94.6189 170° South  Level FlightAware Approximate
Sun 07:01:00 AM 76.6785 94.7158 170° South  Level FlightAware Approximate
Sun 07:02:00 AM 76.5472 94.8108 170° South  Level FlightAware Approximate
Sun 07:03:00 AM 76.4160 94.9041 171° South  Level FlightAware Approximate
Sun 07:04:00 AM 76.2847 94.9956 171° South  Level FlightAware Approximate
Sun 07:05:00 AM 76.1534 95.0853 171° South  Level FlightAware Approximate
Sun 07:06:00 AM 76.0220 95.1734 171° South  Level FlightAware Approximate
Sun 07:07:00 AM 75.8907 95.2599 171° South  Level FlightAware Approximate
Sun 07:08:00 AM 75.7592 95.3449 171° South  Level FlightAware Approximate
Sun 07:09:00 AM 75.6278 95.4283 171° South  Level FlightAware Approximate
Sun 07:10:00 AM 75.4963 95.5103 171° South  Level FlightAware Approximate
Sun 07:11:00 AM 75.3648 95.5908 171° South  Level FlightAware Approximate
Sun 07:12:00 AM 75.2333 95.6699 171° South  Level FlightAware Approximate
Sun 07:13:00 AM 75.1018 95.7476 171° South  Level FlightAware Approximate
Sun 07:14:00 AM 74.9702 95.8240 171° South  Level FlightAware Approximate
Sun 07:15:00 AM 74.8386 95.8991 172° South  Level FlightAware Approximate
Sun 07:16:00 AM 74.7069 95.9730 172° South  Level FlightAware Approximate
Sun 07:17:00 AM 74.5753 96.0456 172° South  Level FlightAware Approximate
Sun 07:18:00 AM 74.4436 96.1170 172° South  Level FlightAware Approximate
Sun 07:19:00 AM 74.3119 96.1873 172° South  Level FlightAware Approximate
Sun 07:20:00 AM 74.1802 96.2564 172° South  Level FlightAware Approximate
Sun 07:21:00 AM 74.0484 96.3244 172° South  Level FlightAware Approximate
Sun 07:22:00 AM 73.9167 96.3913 172° South  Level FlightAware Approximate
Sun 07:23:00 AM 73.7849 96.4571 172° South  Level FlightAware Approximate
Sun 07:24:00 AM 73.6531 96.5219 172° South  Level FlightAware Approximate
Sun 07:25:00 AM 73.5213 96.5857 172° South  Level FlightAware Approximate
Sun 07:26:00 AM 73.3894 96.6486 172° South  Level FlightAware Approximate
Sun 07:27:00 AM 73.2576 96.7104 172° South  Level FlightAware Approximate
Sun 07:28:00 AM 73.1257 96.7713 172° South  Level FlightAware Approximate
Sun 07:29:00 AM 72.9938 96.8314 172° South  Level FlightAware Approximate
Sun 07:30:00 AM 72.8619 96.8905 172° South  Level FlightAware Approximate
Sun 07:31:00 AM 72.7300 96.9487 173° South  Level FlightAware Approximate
Sun 07:32:00 AM 72.5980 97.0061 173° South  Level FlightAware Approximate
Sun 07:33:00 AM 72.4660 97.0626 173° South  Level FlightAware Approximate
Sun 07:34:00 AM 72.3341 97.1183 173° South  Level FlightAware Approximate
Sun 07:35:00 AM 72.2021 97.1732 173° South  Level FlightAware Approximate
Sun 07:36:00 AM 72.0701 97.2274 173° South  Level FlightAware Approximate
Sun 07:37:00 AM 71.9380 97.2807 173° South  Level FlightAware Approximate
Sun 07:38:00 AM 71.8060 97.3334 173° South  Level FlightAware Approximate
Sun 07:39:00 AM 71.6739 97.3853 173° South  Level FlightAware Approximate
Sun 07:40:00 AM 71.5419 97.4364 173° South  Level FlightAware Approximate
Sun 07:41:00 AM 71.4098 97.4869 173° South  Level FlightAware Approximate
Sun 07:42:00 AM 71.2777 97.5367 173° South  Level FlightAware Approximate
Sun 07:43:00 AM 71.1456 97.5858 173° South  Level FlightAware Approximate
Sun 07:44:00 AM 71.0135 97.6342 173° South  Level FlightAware Approximate
Sun 07:45:00 AM 70.8813 97.6820 173° South  Level FlightAware Approximate
Sun 07:46:00 AM 70.7492 97.7292 173° South  Level FlightAware Approximate
Sun 07:47:00 AM 70.6170 97.7758 173° South  Level FlightAware Approximate
Sun 07:48:00 AM 70.4849 97.8217 173° South  Level FlightAware Approximate
Sun 07:49:00 AM 70.3527 97.8671 173° South  Level FlightAware Approximate
Sun 07:50:00 AM 70.2205 97.9118 173° South  Level FlightAware Approximate
Sun 07:51:00 AM 70.0883 97.9560 174° South  Level FlightAware Approximate
Sun 07:52:00 AM 69.9561 97.9997 174° South  Level FlightAware Approximate
Sun 07:53:00 AM 69.8239 98.0428 174° South  Level FlightAware Approximate
Sun 07:54:00 AM 69.6916 98.0853 174° South  Level FlightAware Approximate
Sun 07:55:00 AM 69.5594 98.1273 174° South  Level FlightAware Approximate
Sun 07:56:00 AM 69.4271 98.1689 174° South  Level FlightAware Approximate
Sun 07:57:00 AM 69.2949 98.2098 174° South  Level FlightAware Approximate
Sun 07:58:00 AM 69.1626 98.2504 174° South  Level FlightAware Approximate
Sun 07:59:00 AM 69.0303 98.2904 174° South  Level FlightAware Approximate
Sun 08:00:00 AM 68.8980 98.3299 174° South  Level FlightAware Approximate
Sun 08:01:00 AM 68.7657 98.3690 174° South  Level FlightAware Approximate
Sun 08:02:00 AM 68.6334 98.4076 174° South  Level FlightAware Approximate
Sun 08:03:00 AM 68.5011 98.4457 174° South  Level FlightAware Approximate
Sun 08:04:00 AM 68.3688 98.4834 174° South  Level FlightAware Approximate
Sun 08:05:00 AM 68.2364 98.5207 174° South  Level FlightAware Approximate
Sun 08:06:00 AM 68.1041 98.5575 174° South  Level FlightAware Approximate
Sun 08:07:00 AM 67.9717 98.5940 174° South  Level FlightAware Approximate
Sun 08:08:00 AM 67.8394 98.6300 174° South  Level FlightAware Approximate
Sun 08:09:00 AM 67.7070 98.6656 174° South  Level FlightAware Approximate
Sun 08:10:00 AM 67.5746 98.7008 174° South  Level FlightAware Approximate
Sun 08:11:00 AM 67.4423 98.7356 174° South  Level FlightAware Approximate
Sun 08:12:00 AM 67.3099 98.7700 174° South  Level FlightAware Approximate
Sun 08:13:00 AM 67.1775 98.8041 174° South  Level FlightAware Approximate
Sun 08:14:00 AM 67.0451 98.8377 174° South  Level FlightAware Approximate
Sun 08:15:00 AM 66.9127 98.8710 174° South  Level FlightAware Approximate
Sun 08:16:00 AM 66.7802 98.9040 174° South  Level FlightAware Approximate
Sun 08:17:00 AM 66.6478 98.9366 174° South  Level FlightAware Approximate
Sun 08:18:00 AM 66.5154 98.9688 174° South  Level FlightAware Approximate
Sun 08:19:00 AM 66.3829 99.0007 174° South  Level FlightAware Approximate
Sun 08:20:00 AM 66.2505 99.0323 175° South  Level FlightAware Approximate
Sun 08:21:00 AM 66.1180 99.0636 175° South  Level FlightAware Approximate
Sun 08:22:00 AM 65.9856 99.0945 175° South  Level FlightAware Approximate
Sun 08:23:00 AM 65.8531 99.1251 175° South  Level FlightAware Approximate
Sun 08:24:00 AM 65.7206 99.1554 175° South  Level FlightAware Approximate
Sun 08:25:00 AM 65.5882 99.1853 175° South  Level FlightAware Approximate
Sun 08:26:00 AM 65.4557 99.2150 175° South  Level FlightAware Approximate
Sun 08:27:00 AM 65.3232 99.2444 175° South  Level FlightAware Approximate
Sun 08:28:00 AM 65.1907 99.2735 175° South  Level FlightAware Approximate
Sun 08:29:00 AM 65.0582 99.3023 175° South  Level FlightAware Approximate
Sun 08:30:00 AM 64.9257 99.3307 175° South  Level FlightAware Approximate
Sun 08:31:00 AM 64.7932 99.3590 175° South  Level FlightAware Approximate
Sun 08:32:00 AM 64.6607 99.3869 175° South  Level FlightAware Approximate
Sun 08:33:00 AM 64.5282 99.4146 175° South  Level FlightAware Approximate
Sun 08:34:00 AM 64.3956 99.4420 175° South  Level FlightAware Approximate
Sun 08:35:00 AM 64.2631 99.4692 175° South  Level FlightAware Approximate
Sun 08:36:00 AM 64.1305 99.4960 175° South  Level FlightAware Approximate
Sun 08:37:00 AM 63.9980 99.5227 175° South  Level FlightAware Approximate
Sun 08:38:00 AM 63.8655 99.5491 175° South  Level FlightAware Approximate
Sun 08:39:00 AM 63.7329 99.5752 175° South  Level FlightAware Approximate
Sun 08:40:00 AM 63.6004 99.6011 175° South  Level FlightAware Approximate
Sun 08:41:00 AM 63.4678 99.6267 175° South  Level FlightAware Approximate
Sun 08:42:00 AM 63.3352 99.6521 175° South  Level FlightAware Approximate
Sun 08:43:00 AM 63.2027 99.6773 175° South  Level FlightAware Approximate
Sun 08:44:00 AM 63.0701 99.7023 175° South  Level FlightAware Approximate
Sun 08:45:00 AM 62.9375 99.7270 175° South  Level FlightAware Approximate
Sun 08:46:00 AM 62.8049 99.7515 175° South  Level FlightAware Approximate
Sun 08:47:00 AM 62.6724 99.7758 175° South  Level FlightAware Approximate
Sun 08:48:00 AM 62.5398 99.7998 175° South  Level FlightAware Approximate
Sun 08:49:00 AM 62.4072 99.8237 175° South  Level FlightAware Approximate
Sun 08:50:00 AM 62.2746 99.8473 175° South  Level FlightAware Approximate
Sun 08:51:00 AM 62.1420 99.8708 175° South  Level FlightAware Approximate
Sun 08:52:00 AM 62.0094 99.8940 175° South  Level FlightAware Approximate
Sun 08:53:00 AM 61.8768 99.9170 175° South  Level FlightAware Approximate
Sun 08:54:00 AM 61.7441 99.9398 175° South  Level FlightAware Approximate
Sun 08:55:00 AM 61.6115 99.9625 175° South  Level FlightAware Approximate
Sun 08:56:00 AM 61.4789 99.9849 175° South  Level FlightAware Approximate
Sun 08:57:00 AM 61.3463 100.0072 175° South  Level FlightAware Approximate
Sun 08:58:00 AM 61.2136 100.0292 175° South  Level FlightAware Approximate
Sun 08:59:00 AM 61.0810 100.0511 175° South  Level FlightAware Approximate
Sun 09:00:00 AM 60.9484 100.0728 175° South  Level FlightAware Approximate
Sun 09:01:00 AM 60.8157 100.0943 175° South  Level FlightAware Approximate
Sun 09:02:00 AM 60.6831 100.1156 175° South  Level FlightAware Approximate
Sun 09:03:00 AM 60.5504 100.1368 176° South  Level FlightAware Approximate
Sun 09:04:00 AM 60.4178 100.1578 176° South  Level FlightAware Approximate
Sun 09:05:00 AM 60.2851 100.1786 176° South  Level FlightAware Approximate
Sun 09:06:00 AM 60.1525 100.1993 176° South  Level FlightAware Approximate
Sun 09:07:00 AM 60.0198 100.2197 176° South  Level FlightAware Approximate
Sun 09:08:00 AM 59.8872 100.2401 176° South  Level FlightAware Approximate
Sun 09:09:00 AM 59.7545 100.2602 176° South  Level FlightAware Approximate
Sun 09:10:00 AM 59.6218 100.2802 176° South  Level FlightAware Approximate
Sun 09:11:00 AM 59.4892 100.3001 176° South  Level FlightAware Approximate
Sun 09:12:00 AM 59.3565 100.3197 176° South  Level FlightAware Approximate
Sun 09:13:00 AM 59.2238 100.3393 176° South  Level FlightAware Approximate
Sun 09:14:00 AM 59.0911 100.3587 176° South  Level FlightAware Approximate
Sun 09:15:00 AM 58.9585 100.3779 176° South  Level FlightAware Approximate
Sun 09:16:00 AM 58.8258 100.3970 176° South  Level FlightAware Approximate
Sun 09:17:00 AM 58.6931 100.4159 176° South  Level FlightAware Approximate
Sun 09:18:00 AM 58.5604 100.4347 176° South  Level FlightAware Approximate
Sun 09:19:00 AM 58.4277 100.4533 176° South  Level FlightAware Approximate
Sun 09:20:00 AM 58.2950 100.4719 176° South  Level FlightAware Approximate
Sun 09:21:00 AM 58.1623 100.4902 176° South  Level FlightAware Approximate
Sun 09:22:00 AM 58.0296 100.5085 176° South  Level FlightAware Approximate
Sun 09:23:00 AM 57.8969 100.5266 176° South  Level FlightAware Approximate
Sun 09:24:00 AM 57.7642 100.5445 176° South  Level FlightAware Approximate
Sun 09:25:00 AM 57.6315 100.5624 176° South  Level FlightAware Approximate
Sun 09:26:00 AM 57.4988 100.5801 176° South  Level FlightAware Approximate
Sun 09:27:00 AM 57.3661 100.5977 176° South  Level FlightAware Approximate
Sun 09:28:00 AM 57.2333 100.6151 176° South  Level FlightAware Approximate
Sun 09:29:00 AM 57.1006 100.6324 176° South  Level FlightAware Approximate
Sun 09:30:00 AM 56.9679 100.6497 176° South  Level FlightAware Approximate
Sun 09:31:00 AM 56.8352 100.6667 176° South  Level FlightAware Approximate
Sun 09:32:00 AM 56.7024 100.6837 176° South  Level FlightAware Approximate
Sun 09:33:00 AM 56.5697 100.7005 176° South  Level FlightAware Approximate
Sun 09:34:00 AM 56.4370 100.7172 176° South  Level FlightAware Approximate
Sun 09:35:00 AM 56.3043 100.7339 176° South  Level FlightAware Approximate
Sun 09:36:00 AM 56.1715 100.7504 176° South  Level FlightAware Approximate
Sun 09:37:00 AM 56.0388 100.7667 176° South  Level FlightAware Approximate
Sun 09:38:00 AM 55.9060 100.7830 176° South  Level FlightAware Approximate
Sun 09:39:00 AM 55.7733 100.7992 176° South  Level FlightAware Approximate
Sun 09:40:00 AM 55.6406 100.8152 176° South  Level FlightAware Approximate
Sun 09:41:00 AM 55.5078 100.8311 176° South  Level FlightAware Approximate
Sun 09:42:00 AM 55.3751 100.8470 176° South  Level FlightAware Approximate
Sun 09:43:00 AM 55.2423 100.8627 176° South  Level FlightAware Approximate
Sun 09:44:00 AM 55.1096 100.8783 176° South  Level FlightAware Approximate
Sun 09:45:00 AM 54.9768 100.8939 176° South  Level FlightAware Approximate
Sun 09:46:00 AM 54.8441 100.9093 176° South  Level FlightAware Approximate
Sun 09:47:00 AM 54.7113 100.9246 176° South  Level FlightAware Approximate
Sun 09:48:00 AM 54.5785 100.9398 176° South  Level FlightAware Approximate
Sun 09:49:00 AM 54.4458 100.9549 176° South  Level FlightAware Approximate
Sun 09:50:00 AM 54.3130 100.9699 176° South  Level FlightAware Approximate
Sun 09:51:00 AM 54.1802 100.9848 176° South  Level FlightAware Approximate
Sun 09:52:00 AM 54.0475 100.9997 176° South  Level FlightAware Approximate
Sun 09:53:00 AM 53.9147 101.0144 176° South  Level FlightAware Approximate
Sun 09:54:00 AM 53.7819 101.0291 176° South  Level FlightAware Approximate
Sun 09:55:00 AM 53.6492 101.0436 176° South  Level FlightAware Approximate
Sun 09:56:00 AM 53.5164 101.0581 176° South  Level FlightAware Approximate
Sun 09:57:00 AM 53.3836 101.0724 176° South  Level FlightAware Approximate
Sun 09:58:00 AM 53.2508 101.0867 176° South  Level FlightAware Approximate
Sun 09:59:00 AM 53.1180 101.1009 176° South  Level FlightAware Approximate
Sun 10:00:00 AM 52.9853 101.1150 176° South  Level FlightAware Approximate
Sun 10:01:00 AM 52.8525 101.1290 176° South  Level FlightAware Approximate
Sun 10:02:00 AM 52.7197 101.1429 176° South  Level FlightAware Approximate
Sun 10:03:00 AM 52.5869 101.1568 176° South  Level FlightAware Approximate
Sun 10:04:00 AM 52.4541 101.1705 176° South  Level FlightAware Approximate
Sun 10:05:00 AM 52.3213 101.1842 176° South  Level FlightAware Approximate
Sun 10:06:00 AM 52.1885 101.1978 176° South  Level FlightAware Approximate
Sun 10:07:00 AM 52.0558 101.2113 176° South  Level FlightAware Approximate
Sun 10:08:00 AM 51.9230 101.2247 176° South  Level FlightAware Approximate
Sun 10:09:00 AM 51.7902 101.2381 176° South  Level FlightAware Approximate
Sun 10:10:00 AM 51.6574 101.2514 176° South  Level FlightAware Approximate
Sun 10:11:00 AM 51.5246 101.2645 176° South  Level FlightAware Approximate
Sun 10:12:00 AM 51.3918 101.2777 176° South  Level FlightAware Approximate
Sun 10:13:00 AM 51.2590 101.2907 176° South  Level FlightAware Approximate
Sun 10:14:00 AM 51.1262 101.3037 176° South  Level FlightAware Approximate
Sun 10:15:00 AM 50.9934 101.3166 177° South  Level FlightAware Approximate
Sun 10:16:00 AM 50.8606 101.3294 177° South  Level FlightAware Approximate
Sun 10:17:00 AM 50.7277 101.3422 177° South  Level FlightAware Approximate
Sun 10:18:00 AM 50.5949 101.3548 177° South  Level FlightAware Approximate
Sun 10:19:00 AM 50.4621 101.3674 177° South  Level FlightAware Approximate
Sun 10:20:00 AM 50.3293 101.3800 177° South  Level FlightAware Approximate
Sun 10:21:00 AM 50.1965 101.3925 177° South  Level FlightAware Approximate
Sun 10:22:00 AM 50.0637 101.4049 177° South  Level FlightAware Approximate
Sun 10:23:00 AM 49.9309 101.4172 177° South  Level FlightAware Approximate
Sun 10:24:00 AM 49.7981 101.4295 177° South  Level FlightAware Approximate
Sun 10:25:00 AM 49.6652 101.4416 177° South  Level FlightAware Approximate
Sun 10:26:00 AM 49.5324 101.4538 177° South  Level FlightAware Approximate
Sun 10:27:00 AM 49.3996 101.4658 177° South  Level FlightAware Approximate
Sun 10:28:00 AM 49.2668 101.4778 177° South  Level FlightAware Approximate
Sun 10:29:00 AM 49.1340 101.4898 177° South  Level FlightAware Approximate
Sun 10:30:00 AM 49.0011 101.5016 177° South  Level FlightAware Approximate
Sun 10:31:00 AM 48.8683 101.5134 177° South  Level FlightAware Approximate
Sun 10:32:00 AM 48.7355 101.5252 177° South  Level FlightAware Approximate
Sun 10:33:00 AM 48.6026 101.5368 177° South  Level FlightAware Approximate
Sun 10:34:00 AM 48.4698 101.5485 177° South  Level FlightAware Approximate
Sun 10:35:00 AM 48.3370 101.5600 177° South  Level FlightAware Approximate
Sun 10:36:00 AM 48.2042 101.5715 177° South  Level FlightAware Approximate
Sun 10:37:00 AM 48.0713 101.5830 177° South  Level FlightAware Approximate
Sun 10:38:00 AM 47.9385 101.5944 177° South  Level FlightAware Approximate
Sun 10:39:00 AM 47.8057 101.6057 177° South  Level FlightAware Approximate
Sun 10:40:00 AM 47.6728 101.6169 177° South  Level FlightAware Approximate
Sun 10:41:00 AM 47.5400 101.6281 177° South  Level FlightAware Approximate
Sun 10:42:00 AM 47.4072 101.6393 177° South  Level FlightAware Approximate
Sun 10:43:00 AM 47.2743 101.6504 177° South  Level FlightAware Approximate
Sun 10:44:00 AM 47.1415 101.6614 177° South  Level FlightAware Approximate
Sun 10:45:00 AM 47.0086 101.6724 177° South  Level FlightAware Approximate
Sun 10:46:00 AM 46.8758 101.6833 177° South  Level FlightAware Approximate
Sun 10:47:00 AM 46.7430 101.6942 177° South  Level FlightAware Approximate
Sun 10:48:00 AM 46.6101 101.7050 177° South  Level FlightAware Approximate
Sun 10:49:00 AM 46.4773 101.7158 177° South  Level FlightAware Approximate
Sun 10:50:00 AM 46.3444 101.7265 177° South  Level FlightAware Approximate
Sun 10:51:00 AM 46.2116 101.7372 177° South  Level FlightAware Approximate
Sun 10:52:00 AM 46.0787 101.7478 177° South  Level FlightAware Approximate
Sun 10:53:00 AM 45.9459 101.7583 177° South  Level FlightAware Approximate
Sun 10:54:00 AM 45.8130 101.7689 177° South  Level FlightAware Approximate
Sun 10:55:00 AM 45.6802 101.7793 177° South  Level FlightAware Approximate
Sun 10:56:00 AM 45.5473 101.7897 177° South  Level FlightAware Approximate
Sun 10:57:00 AM 45.4145 101.8001 177° South  Level FlightAware Approximate
Sun 10:58:00 AM 45.2816 101.8104 177° South  Level FlightAware Approximate
Sun 10:59:00 AM 45.1488 101.8207 177° South  Level FlightAware Approximate
Sun 11:00:00 AM 45.0159 101.8309 177° South  Level FlightAware Approximate
Sun 11:01:00 AM 44.8830 101.8410 177° South  Level FlightAware Approximate
Sun 11:02:00 AM 44.7502 101.8512 177° South  Level FlightAware Approximate
Sun 11:03:00 AM 44.6173 101.8613 177° South  Level FlightAware Approximate
Sun 11:04:00 AM 44.4845 101.8713 177° South  Level FlightAware Approximate
Sun 11:05:00 AM 44.3516 101.8813 177° South  Level FlightAware Approximate
Sun 11:06:00 AM 44.2187 101.8912 177° South  Level FlightAware Approximate
Sun 11:07:00 AM 44.0859 101.9011 177° South  Level FlightAware Approximate
Sun 11:08:00 AM 43.9530 101.9110 177° South  Level FlightAware Approximate
Sun 11:09:00 AM 43.8202 101.9208 177° South  Level FlightAware Approximate
Sun 11:10:00 AM 43.6873 101.9305 177° South  Level FlightAware Approximate
Sun 11:11:00 AM 43.5544 101.9402 177° South  Level FlightAware Approximate
Sun 11:12:00 AM 43.4216 101.9499 177° South  Level FlightAware Approximate
Sun 11:13:00 AM 43.2887 101.9596 177° South  Level FlightAware Approximate
Sun 11:14:00 AM 43.1558 101.9691 177° South  Level FlightAware Approximate
Sun 11:15:00 AM 43.0229 101.9787 177° South  Level FlightAware Approximate
Sun 11:16:00 AM 42.8901 101.9882 177° South  Level FlightAware Approximate
Sun 11:17:00 AM 42.7572 101.9977 177° South  Level FlightAware Approximate
Sun 11:18:00 AM 42.6243 102.0071 177° South  Level FlightAware Approximate
Sun 11:19:00 AM 42.4915 102.0165 177° South  Level FlightAware Approximate
Sun 11:20:00 AM 42.3586 102.0258 177° South  Level FlightAware Approximate
Sun 11:21:00 AM 42.2257 102.0352 177° South  Level FlightAware Approximate
Sun 11:22:00 AM 42.0929 102.0444 177° South  Level FlightAware Approximate
Sun 11:23:00 AM 41.9600 102.0537 177° South  Level FlightAware Approximate
Sun 11:24:00 AM 41.8271 102.0629 177° South  Level FlightAware Approximate
Sun 11:25:00 AM 41.6942 102.0720 177° South  Level FlightAware Approximate
Sun 11:26:00 AM 41.5614 102.0811 177° South  Level FlightAware Approximate
Sun 11:27:00 AM 41.4285 102.0902 177° South  Level FlightAware Approximate
Sun 11:28:00 AM 41.2956 102.0992 177° South  Level FlightAware Approximate
Sun 11:29:00 AM 41.1627 102.1083 177° South  Level FlightAware Approximate
Sun 11:30:00 AM 41.0298 102.1172 177° South  Level FlightAware Approximate
Sun 11:31:00 AM 40.8969 102.1262 177° South  Level FlightAware Approximate
Sun 11:32:00 AM 40.7641 102.1350 177° South  Level FlightAware Approximate
Sun 11:33:00 AM 40.6312 102.1439 177° South  Level FlightAware Approximate
Sun 11:34:00 AM 40.4983 102.1527 177° South  Level FlightAware Approximate
Sun 11:35:00 AM 40.3654 102.1615 177° South  Level FlightAware Approximate
Sun 11:36:00 AM 40.2326 102.1703 177° South  Level FlightAware Approximate
Sun 11:37:00 AM 40.0997 102.1790 177° South  Level FlightAware Approximate
Sun 11:38:00 AM 39.9668 102.1877 177° South  Level FlightAware Approximate
Sun 11:39:00 AM 39.8339 102.1964 177° South  Level FlightAware Approximate
Sun 11:40:00 AM 39.7010 102.2050 177° South  Level FlightAware Approximate
Sun 11:41:00 AM 39.5681 102.2136 177° South  Level FlightAware Approximate
Sun 11:42:00 AM 39.4352 102.2221 177° South  Level FlightAware Approximate
Sun 11:43:00 AM 39.3023 102.2307 177° South  Level FlightAware Approximate
Sun 11:44:00 AM 39.1694 102.2391 177° South  Level FlightAware Approximate
Sun 11:45:00 AM 39.0366 102.2476 177° South  Level FlightAware Approximate
Sun 11:46:00 AM 38.9037 102.2560 177° South  Level FlightAware Approximate
Sun 11:47:00 AM 38.7708 102.2644 177° South  Level FlightAware Approximate
Sun 11:48:00 AM 38.6379 102.2728 177° South  Level FlightAware Approximate
Sun 11:49:00 AM 38.5050 102.2811 177° South  Level FlightAware Approximate
Sun 11:50:00 AM 38.3721 102.2894 177° South  Level FlightAware Approximate
Sun 11:51:00 AM 38.2392 102.2977 177° South  Level FlightAware Approximate
Sun 11:52:00 AM 38.1063 102.3059 177° South  Level FlightAware Approximate
Sun 11:53:00 AM 37.9734 102.3141 177° South  Level FlightAware Approximate
Sun 11:54:00 AM 37.8405 102.3223 177° South  Level FlightAware Approximate
Sun 11:55:00 AM 37.7076 102.3305 177° South  Level FlightAware Approximate
Sun 11:56:00 AM 37.5747 102.3386 177° South  Level FlightAware Approximate
Sun 11:57:00 AM 37.4418 102.3467 177° South  Level FlightAware Approximate
Sun 11:58:00 AM 37.3089 102.3548 177° South  Level FlightAware Approximate
Sun 11:59:00 AM 37.1760 102.3628 177° South  Level FlightAware Approximate
Sun 12:00:00 PM 37.0432 102.3708 177° South  Level FlightAware Approximate
Sun 12:01:00 PM 36.9103 102.3788 177° South  Level FlightAware Approximate
Sun 12:02:00 PM 36.7774 102.3867 177° South  Level FlightAware Approximate
Sun 12:03:00 PM 36.6445 102.3947 177° South  Level FlightAware Approximate
Sun 12:04:00 PM 36.5116 102.4026 177° South  Level FlightAware Approximate
Sun 12:05:00 PM 36.3787 102.4104 177° South  Level FlightAware Approximate
Sun 12:06:00 PM 36.2458 102.4183 177° South  Level FlightAware Approximate
Sun 12:07:00 PM 36.1129 102.4261 177° South  Level FlightAware Approximate
Sun 12:08:00 PM 35.9799 102.4339 177° South  Level FlightAware Approximate
Sun 12:09:00 PM 35.8470 102.4417 177° South  Level FlightAware Approximate
Sun 12:10:00 PM 35.7141 102.4494 177° South  Level FlightAware Approximate
Sun 12:11:00 PM 35.5812 102.4571 177° South  Level FlightAware Approximate
Sun 12:12:00 PM 35.4483 102.4648 177° South  Level FlightAware Approximate
Sun 12:13:00 PM 35.3154 102.4725 177° South  Level FlightAware Approximate
Sun 12:14:00 PM 35.1825 102.4801 177° South  Level FlightAware Approximate
Sun 12:15:00 PM 35.0496 102.4877 177° South  Level FlightAware Approximate
Sun 12:16:00 PM 34.9167 102.4953 177° South  Level FlightAware Approximate
Sun 12:17:00 PM 34.7838 102.5029 177° South  Level FlightAware Approximate
Sun 12:18:00 PM 34.6509 102.5104 177° South  Level FlightAware Approximate
Sun 12:19:00 PM 34.5180 102.5179 177° South  Level FlightAware Approximate
Sun 12:20:00 PM 34.3851 102.5254 177° South  Level FlightAware Approximate
Sun 12:21:00 PM 34.2522 102.5329 177° South  Level FlightAware Approximate
Sun 12:22:00 PM 34.1193 102.5403 177° South  Level FlightAware Approximate
Sun 12:23:00 PM 33.9864 102.5478 177° South  Level FlightAware Approximate
Sun 12:24:00 PM 33.8534 102.5552 177° South  Level FlightAware Approximate
Sun 12:25:00 PM 33.7205 102.5625 177° South  Level FlightAware Approximate
Sun 12:26:00 PM 33.5876 102.5699 177° South  Level FlightAware Approximate
Sun 12:27:00 PM 33.4547 102.5772 177° South  Level FlightAware Approximate
Sun 12:28:00 PM 33.3218 102.5845 177° South  Level FlightAware Approximate
Sun 12:29:00 PM 33.1889 102.5918 177° South  Level FlightAware Approximate
Sun 12:30:00 PM 33.0560 102.5991 177° South  Level FlightAware Approximate
Sun 12:31:00 PM 32.9231 102.6063 177° South  Level FlightAware Approximate
Sun 12:32:00 PM 32.7902 102.6135 177° South  Level FlightAware Approximate
Sun 12:33:00 PM 32.6572 102.6207 177° South  Level FlightAware Approximate
Sun 12:34:00 PM 32.5243 102.6279 177° South  Level FlightAware Approximate
Sun 12:35:00 PM 32.3914 102.6350 177° South  Level FlightAware Approximate
Sun 12:36:00 PM 32.2585 102.6422 177° South  Level FlightAware Approximate
Sun 12:37:00 PM 32.1256 102.6493 177° South  Level FlightAware Approximate
Sun 12:38:00 PM 31.9927 102.6564 177° South  Level FlightAware Approximate
Sun 12:39:00 PM 31.8598 102.6634 177° South  Level FlightAware Approximate
Sun 12:40:00 PM 31.7268 102.6705 177° South  Level FlightAware Approximate
Sun 12:41:00 PM 31.5939 102.6775 177° South  Level FlightAware Approximate
Sun 12:42:00 PM 31.4610 102.6845 177° South  Level FlightAware Approximate
Sun 12:43:00 PM 31.3281 102.6915 177° South  Level FlightAware Approximate
Sun 12:44:00 PM 31.1952 102.6985 177° South  Level FlightAware Approximate
Sun 12:45:00 PM 31.0622 102.7054 177° South  Level FlightAware Approximate
Sun 12:46:00 PM 30.9293 102.7124 177° South  Level FlightAware Approximate
Sun 12:47:00 PM 30.7964 102.7193 177° South  Level FlightAware Approximate
Sun 12:48:00 PM 30.6635 102.7262 177° South  Level FlightAware Approximate
Sun 12:49:00 PM 30.5306 102.7330 177° South  Level FlightAware Approximate
Sun 12:50:00 PM 30.3976 102.7399 177° South  Level FlightAware Approximate
Sun 12:51:00 PM 30.2647 102.7467 177° South  Level FlightAware Approximate
Sun 12:52:00 PM 30.1318 102.7536 177° South  Level FlightAware Approximate
Sun 12:53:00 PM 29.9989 102.7604 177° South  Level FlightAware Approximate
Sun 12:54:00 PM 29.8660 102.7672 177° South  Level FlightAware Approximate
Sun 12:55:00 PM 29.7330 102.7739 177° South  Level FlightAware Approximate
Sun 12:56:00 PM 29.6001 102.7807 177° South  Level FlightAware Approximate
Sun 12:57:00 PM 29.4672 102.7874 177° South  Level FlightAware Approximate
Sun 12:58:00 PM 29.3343 102.7941 177° South  Level FlightAware Approximate
Sun 12:59:00 PM 29.2014 102.8008 177° South  Level FlightAware Approximate
Sun 01:00:00 PM 29.0684 102.8075 177° South  Level FlightAware Approximate
Sun 01:01:00 PM 28.9355 102.8141 177° South  Level FlightAware Approximate
Sun 01:02:00 PM 28.8026 102.8208 177° South  Level FlightAware Approximate
Sun 01:03:00 PM 28.6697 102.8274 177° South  Level FlightAware Approximate
Sun 01:04:00 PM 28.5368 102.8340 177° South  Level FlightAware Approximate
Sun 01:05:00 PM 28.4038 102.8406 178° South  Level FlightAware Approximate
Sun 01:06:00 PM 28.2709 102.8472 178° South  Level FlightAware Approximate
Sun 01:07:00 PM 28.1380 102.8537 178° South  Level FlightAware Approximate
Sun 01:08:00 PM 28.0050 102.8603 178° South  Level FlightAware Approximate
Sun 01:09:00 PM 27.8721 102.8668 178° South  Level FlightAware Approximate
Sun 01:10:00 PM 27.7392 102.8733 178° South  Level FlightAware Approximate
Sun 01:11:00 PM 27.6063 102.8798 178° South  Level FlightAware Approximate
Sun 01:12:00 PM 27.4733 102.8863 178° South  Level FlightAware Approximate
Sun 01:13:00 PM 27.3404 102.8928 178° South  Level FlightAware Approximate
Sun 01:14:00 PM 27.2075 102.8992 178° South  Level FlightAware Approximate
Sun 01:15:00 PM 27.0745 102.9056 178° South  Level FlightAware Approximate
Sun 01:16:00 PM 26.9416 102.9120 178° South  Level FlightAware Approximate
Sun 01:17:00 PM 26.8087 102.9184 178° South  Level FlightAware Approximate
Sun 01:18:00 PM 26.6757 102.9248 178° South  Level FlightAware Approximate
Sun 01:19:00 PM 26.5428 102.9312 178° South  Level FlightAware Approximate
Sun 01:20:00 PM 26.4099 102.9376 178° South  Level FlightAware Approximate
Sun 01:21:00 PM 26.2770 102.9439 178° South  Level FlightAware Approximate
Sun 01:22:00 PM 26.1440 102.9502 178° South  Level FlightAware Approximate
Sun 01:23:00 PM 26.0111 102.9566 178° South  Level FlightAware Approximate
Sun 01:24:00 PM 25.8782 102.9629 178° South  Level FlightAware Approximate
Sun 01:25:00 PM 25.7452 102.9691 178° South  Level FlightAware Approximate
Sun 01:26:00 PM 25.6123 102.9754 178° South  Level FlightAware Approximate
Sun 01:27:00 PM 25.4794 102.9817 178° South  Level FlightAware Approximate
Sun 01:28:00 PM 25.3464 102.9879 178° South  Level FlightAware Approximate
Sun 01:29:00 PM 25.2135 102.9941 178° South  Level FlightAware Approximate
Sun 01:30:00 PM 25.0806 103.0004 178° South  Level FlightAware Approximate
Sun 01:31:00 PM 24.9477 103.0066 178° South  Level FlightAware Approximate
Sun 01:32:00 PM 24.8147 103.0127 178° South  Level FlightAware Approximate
Sun 01:33:00 PM 24.6818 103.0189 178° South  Level FlightAware Approximate
Sun 01:34:00 PM 24.5489 103.0251 178° South  Level FlightAware Approximate
Sun 01:35:00 PM 24.4159 103.0312 178° South  Level FlightAware Approximate
Sun 01:36:00 PM 24.2830 103.0374 178° South  Level FlightAware Approximate
Sun 01:37:00 PM 24.1501 103.0435 178° South  Level FlightAware Approximate
Sun 01:38:00 PM 24.0171 103.0496 178° South  Level FlightAware Approximate
Sun 01:39:00 PM 23.8842 103.0557 178° South  Level FlightAware Approximate
Sun 01:40:00 PM 23.7513 103.0618 178° South  Level FlightAware Approximate
Sun 01:41:00 PM 23.6183 103.0679 178° South  Level FlightAware Approximate
Sun 01:42:00 PM 23.4854 103.0739 178° South  Level FlightAware Approximate
Sun 01:43:00 PM 23.3525 103.0800 178° South  Level FlightAware Approximate
Sun 01:44:00 PM 23.2195 103.0860 178° South  Level FlightAware Approximate
Sun 01:45:00 PM 23.0866 103.0920 178° South  Level FlightAware Approximate
Sun 01:46:00 PM 22.9536 103.0981 178° South  Level FlightAware Approximate
Sun 01:47:00 PM 22.8207 103.1041 178° South  Level FlightAware Approximate
Sun 01:48:00 PM 22.6878 103.1100 178° South  Level FlightAware Approximate
Sun 01:49:00 PM 22.5548 103.1160 178° South  Level FlightAware Approximate
Sun 01:50:00 PM 22.4219 103.1220 178° South  Level FlightAware Approximate
Sun 01:51:00 PM 22.2889 103.1280 178° South  Level FlightAware Approximate
Sun 01:52:00 PM 22.1560 103.1339 178° South  Level FlightAware Approximate
Sun 01:53:00 PM 22.0231 103.1398 178° South  Level FlightAware Approximate
Sun 01:54:00 PM 21.8901 103.1458 178° South  Level FlightAware Approximate
Sun 01:55:00 PM 21.7572 103.1517 178° South  Level FlightAware Approximate
Sun 01:56:00 PM 21.6243 103.1576 178° South  Level FlightAware Approximate
Sun 01:57:00 PM 21.4913 103.1635 178° South  Level FlightAware Approximate
Sun 01:58:00 PM 21.3584 103.1693 178° South  Level FlightAware Approximate
Sun 01:59:00 PM 21.2254 103.1752 178° South  Level FlightAware Approximate
Sun 02:00:00 PM 21.0925 103.1811 178° South  Level FlightAware Approximate
Sun 02:01:00 PM 20.9596 103.1869 178° South  Level FlightAware Approximate
Sun 02:02:00 PM 20.8266 103.1927 178° South  Level FlightAware Approximate
Sun 02:03:00 PM 20.6937 103.1986 178° South  Level FlightAware Approximate
Sun 02:04:00 PM 20.5607 103.2044 178° South  Level FlightAware Approximate
Sun 02:05:00 PM 20.4278 103.2102 178° South  Level FlightAware Approximate
Sun 02:06:00 PM 20.2948 103.2160 178° South  Level FlightAware Approximate
Sun 02:07:00 PM 20.1619 103.2218 178° South  Level FlightAware Approximate
Sun 02:08:00 PM 20.0290 103.2276 178° South  Level FlightAware Approximate
Sun 02:09:00 PM 19.8960 103.2334 178° South  Level FlightAware Approximate
Sun 02:10:00 PM 19.7631 103.2391 178° South  Level FlightAware Approximate
Sun 02:11:00 PM 19.6301 103.2449 178° South  Level FlightAware Approximate
Sun 02:12:00 PM 19.4972 103.2506 178° South  Level FlightAware Approximate
Sun 02:13:00 PM 19.3643 103.2563 178° South  Level FlightAware Approximate
Sun 02:14:00 PM 19.2313 103.2620 178° South  Level FlightAware Approximate
Sun 02:15:00 PM 19.0984 103.2678 178° South  Level FlightAware Approximate
Sun 02:16:00 PM 18.9655 103.2735 178° South  Level FlightAware Approximate
Sun 02:17:00 PM 18.8325 103.2792 178° South  Level FlightAware Approximate
Sun 02:18:00 PM 18.6996 103.2848 178° South  Level FlightAware Approximate
Sun 02:19:00 PM 18.5666 103.2905 178° South  Level FlightAware Approximate
Sun 02:20:00 PM 18.4337 103.2962 178° South  Level FlightAware Approximate
Sun 02:21:00 PM 18.3008 103.3018 178° South  Level FlightAware Approximate
Sun 02:22:00 PM 18.1678 103.3075 178° South  Level FlightAware Approximate
Sun 02:23:00 PM 18.0349 103.3131 178° South  Level FlightAware Approximate
Sun 02:24:00 PM 17.9019 103.3187 178° South  Level FlightAware Approximate
Sun 02:25:00 PM 17.7690 103.3244 178° South  Level FlightAware Approximate
Sun 02:26:00 PM 17.6360 103.3300 178° South  Level FlightAware Approximate
Sun 02:27:00 PM 17.5031 103.3356 178° South  Level FlightAware Approximate
Sun 02:28:00 PM 17.3702 103.3412 178° South  Level FlightAware Approximate
Sun 02:29:00 PM 17.2372 103.3468 178° South  Level FlightAware Approximate
Sun 02:30:00 PM 17.1043 103.3523 178° South  Level FlightAware Approximate
Sun 02:31:00 PM 16.9713 103.3579 178° South  Level FlightAware Approximate
Sun 02:32:00 PM 16.8384 103.3635 178° South  Level FlightAware Approximate
Sun 02:33:00 PM 16.7055 103.3690 178° South  Level FlightAware Approximate
Sun 02:34:00 PM 16.5725 103.3746 178° South  Level FlightAware Approximate
Sun 02:35:00 PM 16.4396 103.3801 178° South  Level FlightAware Approximate
Sun 02:36:00 PM 16.3066 103.3857 178° South  Level FlightAware Approximate
Sun 02:37:00 PM 16.1737 103.3912 178° South  Level FlightAware Approximate
Sun 02:38:00 PM 16.0407 103.3967 178° South  Level FlightAware Approximate
Sun 02:39:00 PM 15.9078 103.4022 178° South  Level FlightAware Approximate
Sun 02:40:00 PM 15.7748 103.4077 178° South  Level FlightAware Approximate
Sun 02:41:00 PM 15.6419 103.4132 178° South  Level FlightAware Approximate
Sun 02:42:00 PM 15.5089 103.4187 178° South  Level FlightAware Approximate
Sun 02:43:00 PM 15.3760 103.4242 178° South  Level FlightAware Approximate
Sun 02:44:00 PM 15.2430 103.4297 178° South  Level FlightAware Approximate
Sun 02:45:00 PM 15.1101 103.4351 178° South  Level FlightAware Approximate
Sun 02:46:00 PM 14.9771 103.4406 178° South  Level FlightAware Approximate
Sun 02:47:00 PM 14.8442 103.4461 178° South  Level FlightAware Approximate
Sun 02:48:00 PM 14.7112 103.4515 178° South  Level FlightAware Approximate
Sun 02:49:00 PM 14.5783 103.4569 178° South  Level FlightAware Approximate
Sun 02:50:00 PM 14.4453 103.4624 178° South  Level FlightAware Approximate
Sun 02:51:00 PM 14.3124 103.4678 178° South  Level FlightAware Approximate
Sun 02:52:00 PM 14.1794 103.4732 178° South  Level FlightAware Approximate
Sun 02:53:00 PM 14.0465 103.4787 178° South  Level FlightAware Approximate
Sun 02:54:00 PM 13.9135 103.4841 178° South  Level FlightAware Approximate
Sun 02:55:00 PM 13.7806 103.4895 178° South  Level FlightAware Approximate
Sun 02:56:00 PM 13.6476 103.4949 178° South  Level FlightAware Approximate
Sun 02:57:00 PM 13.5147 103.5003 178° South  Level FlightAware Approximate
Sun 02:58:00 PM 13.3817 103.5056 178° South  Level FlightAware Approximate
Sun 02:59:00 PM 13.2488 103.5110 178° South  Level FlightAware Approximate
Sun 03:00:00 PM 13.1158 103.5164 178° South  Level FlightAware Approximate
Sun 03:01:00 PM 12.9829 103.5218 178° South  Level FlightAware Approximate
Sun 03:02:00 PM 12.8499 103.5271 178° South  Level FlightAware Approximate
Sun 03:03:00 PM 12.7170 103.5325 178° South  Level FlightAware Approximate
Sun 03:04:00 PM 12.5840 103.5378 178° South  Level FlightAware Approximate
Sun 03:05:00 PM 12.4511 103.5432 178° South  Level FlightAware Approximate
Sun 03:06:00 PM 12.3181 103.5485 178° South  Level FlightAware Approximate
Sun 03:07:00 PM 12.1852 103.5538 178° South  Level FlightAware Approximate
Sun 03:08:00 PM 12.0522 103.5592 178° South  Level FlightAware Approximate
Sun 03:09:00 PM 11.9193 103.5645 178° South  Level FlightAware Approximate
Sun 03:10:00 PM 11.7863 103.5698 178° South  Level FlightAware Approximate
Sun 03:11:00 PM 11.6534 103.5751 178° South  Level FlightAware Approximate
Sun 03:12:00 PM 11.5204 103.5804 178° South  Level FlightAware Approximate
Sun 03:13:00 PM 11.3875 103.5857 178° South  Level FlightAware Approximate
Sun 03:14:00 PM 11.2545 103.5910 178° South  Level FlightAware Approximate
Sun 03:15:00 PM 11.1216 103.5963 178° South  Level FlightAware Approximate
Sun 03:16:00 PM 10.9886 103.6016 178° South  Level FlightAware Approximate
Sun 03:17:00 PM 10.8557 103.6069 178° South  Level FlightAware Approximate
Sun 03:18:00 PM 10.7227 103.6122 178° South  Level FlightAware Approximate
Sun 03:19:00 PM 10.5898 103.6174 178° South  Level FlightAware Approximate
Sun 03:20:00 PM 10.4568 103.6227 178° South  Level FlightAware Approximate
Sun 03:21:00 PM 10.3239 103.6280 178° South  Level FlightAware Approximate
Sun 03:22:00 PM 10.1909 103.6332 178° South  Level FlightAware Approximate
Sun 03:23:00 PM 10.0580 103.6385 178° South  Level FlightAware Approximate
Sun 03:24:00 PM 9.9250 103.6437 178° South  Level FlightAware Approximate
Sun 03:25:00 PM 9.7921 103.6490 178° South  Level FlightAware Approximate
Sun 03:26:00 PM 9.6591 103.6542 178° South  Level FlightAware Approximate
Sun 03:27:00 PM 9.5262 103.6595 178° South  Level FlightAware Approximate
Sun 03:28:00 PM 9.3932 103.6647 178° South  Level FlightAware Approximate
Sun 03:29:00 PM 9.2603 103.6699 178° South  Level FlightAware Approximate
Sun 03:30:00 PM 9.1273 103.6752 178° South  Level FlightAware Approximate
Sun 03:31:00 PM 8.9944 103.6804 178° South  Level FlightAware Approximate
Sun 03:32:00 PM 8.8614 103.6856 178° South  Level FlightAware Approximate
Sun 03:33:00 PM 8.7285 103.6908 178° South  Level FlightAware Approximate
Sun 03:34:00 PM 8.5955 103.6960 178° South  Level FlightAware Approximate
Sun 03:35:00 PM 8.4626 103.7012 178° South  Level FlightAware Approximate
Sun 03:36:00 PM 8.3296 103.7065 178° South  Level FlightAware Approximate
Sun 03:37:00 PM 8.1967 103.7116 178° South  Level FlightAware Approximate
Sun 03:38:00 PM 8.0637 103.7169 178° South  Level FlightAware Approximate
Sun 03:39:00 PM 7.9308 103.7220 178° South  Level FlightAware Approximate
Sun 03:40:00 PM 7.7978 103.7272 178° South  Level FlightAware Approximate
Sun 03:41:00 PM 7.6649 103.7324 178° South  Level FlightAware Approximate
Sun 03:42:00 PM 7.5319 103.7376 178° South  Level FlightAware Approximate
Sun 03:43:00 PM 7.3990 103.7428 178° South  Level FlightAware Approximate
Sun 03:44:00 PM 7.2660 103.7480 178° South  Level FlightAware Approximate
Sun 03:45:00 PM 7.1331 103.7531 178° South  Level FlightAware Approximate
Sun 03:46:00 PM 7.0001 103.7583 178° South  Level FlightAware Approximate
Sun 03:47:00 PM 6.8672 103.7635 178° South  Level FlightAware Approximate
Sun 03:48:00 PM 6.7342 103.7686 178° South  Level FlightAware Approximate
Sun 03:49:00 PM 6.6013 103.7738 178° South  Level FlightAware Approximate
Sun 03:50:00 PM 6.4683 103.7790 178° South  Level FlightAware Approximate
Sun 03:51:00 PM 6.3354 103.7841 178° South  Level FlightAware Approximate
Sun 03:52:00 PM 6.2024 103.7893 178° South  Level FlightAware Approximate
Sun 03:53:00 PM 6.0695 103.7944 178° South  Level FlightAware Approximate
Sun 03:54:00 PM 5.9365 103.7996 178° South  Level FlightAware Approximate
Sun 03:55:00 PM 5.8036 103.8047 178° South  Level FlightAware Approximate
Sun 03:56:00 PM 5.6706 103.8099 178° South  Level FlightAware Approximate
Sun 03:57:00 PM 5.5377 103.8150 178° South  Level FlightAware Approximate
Sun 03:58:00 PM 5.4047 103.8202 178° South  Level FlightAware Approximate
Sun 03:59:00 PM 5.2718 103.8253 178° South  Level FlightAware Approximate
Sun 04:00:00 PM 5.1388 103.8305 178° South  Level FlightAware Approximate
Sun 04:01:00 PM 5.0059 103.8356 178° South  Level FlightAware Approximate
Sun 04:02:00 PM 4.8729 103.8407 178° South  Level FlightAware Approximate
Sun 04:03:00 PM 4.7400 103.8458 178° South  Level FlightAware Approximate
Sun 04:04:00 PM 4.6070 103.8510 178° South  Level FlightAware Approximate
Sun 04:05:00 PM 4.4741 103.8561 178° South  Level FlightAware Approximate
Sun 04:06:00 PM 4.3411 103.8612 178° South  Level FlightAware Approximate
Sun 04:07:00 PM 4.2082 103.8663 178° South  Level FlightAware Approximate
Sun 04:08:00 PM 4.0752 103.8715 178° South  Level FlightAware Approximate
Sun 04:09:00 PM 3.9423 103.8766 178° South  Level FlightAware Approximate
Sun 04:10:00 PM 3.8093 103.8817 178° South  Level FlightAware Approximate
Sun 04:11:00 PM 3.6764 103.8868 178° South  Level FlightAware Approximate
Sun 04:12:00 PM 3.5434 103.8919 178° South  Level FlightAware Approximate
Sun 04:13:00 PM 3.4105 103.8970 178° South  Level FlightAware Approximate
Sun 04:14:00 PM 3.2775 103.9046 175° South  Level FlightAware Approximate
Sun 04:15:00 PM 3.1450 103.9157 175° South  Level FlightAware Approximate
Sun 04:16:00 PM 3.0120 103.9194 176° South  Level FlightAware Approximate
Sun 04:17:00 PM 2.8793 103.9289 176° South  Level FlightAware Approximate
Sun 04:18:00 PM 2.7464 103.9333 180° South  Level FlightAware Approximate
Sun 04:19:00 PM 2.6134 103.9333 180° South  Level FlightAware Approximate
Sun 04:20:00 PM 2.4804 103.9368 178° South  Level FlightAware Approximate
Sun 04:21:00 PM 2.3475 103.9421 178° South  Level FlightAware Approximate
Sun 04:22:00 PM 2.2145 103.9474 178° South  Level FlightAware Approximate
Sun 04:23:00 PM 2.0819 103.9568 174° South  Level FlightAware Approximate
Sun 04:24:00 PM 1.9493 103.9667 180° South  Level FlightAware Approximate
Sun 04:25:00 PM 1.8162 103.9667 180° South  Level FlightAware Approximate
Sun 04:26:00 PM 1.6832 103.9667 180° South  Level FlightAware Approximate
Sun 04:27:00 PM 1.5541 103.9833 180° South  Level FlightAware Approximate
Sun 04:28:00 PM 1.4210 103.9833 180° South  Level FlightAware Approximate
Sun 04:29:00 PM 1.3500 103.9833 180° South  Level FlightAware Approximate
Sun 04:30:00 PM 1.3557 103.9875 180° South  Level Estimated
Sun 04:31:00 PM 1.3500 103.9833 180° South  Level FlightAware Approximate
Sun 04:32:00 PM 1.3557 103.9875 180° South  Level Estimated
Sun 04:33:00 PM 1.3500 103.9833 180° South  Level FlightAware Approximate
Sun 04:34:00 PM 1.3557 103.9875 180° South  Level Estimated
Sun 04:35:00 PM 1.3500 103.9833 180° South  Level FlightAware Approximate
Sun 04:36:00 PM 1.3557 103.9875 180° South  Level Estimated
Sun 04:37:00 PM 1.3500 103.9833 180° South  Level FlightAware Approximate
Sun 04:38:00 PM 1.3557 103.9875 180° South  Level Estimated
Sun 04:39:00 PM 1.3500 103.9833 180° South  Level FlightAware Approximate
Sun 04:40:00 PM 1.3557 103.9875 180° South  Level Estimated
Sun 04:41:00 PM 1.3500 103.9833 180° South  Level FlightAware Approximate
Sun 04:42:00 PM 1.3557 103.9875 180° South  Level Estimated
Sun 04:43:00 PM 1.3500 103.9833 180° South  Level FlightAware Approximate
Sun 04:44:00 PM 1.3557 103.9875 180° South  Level Estimated
Sun 04:45:00 PM 1.3500 103.9833 180° South  Level FlightAware Approximate
Sun 04:46:00 PM 1.3557 103.9875 180° South  Level Estimated
Sun 04:47:00 PM 1.3500 103.9833 180° South  Level FlightAware Approximate
Sun 04:48:00 PM 1.3557 103.9875 180° South  Level Estimated
Sun 04:49:00 PM 1.3500 103.9833 180° South  Level FlightAware Approximate
Sun 04:50:00 PM 1.3557 103.9875 180° South  Level Estimated
Sun 04:51:00 PM 1.3500 103.9833 180° South  Level FlightAware Approximate
Sun 04:52:00 PM 1.3557 103.9875 180° South  Level Estimated
Sun 04:53:00 PM 1.3500 103.9833 180° South  Level FlightAware Approximate

Login

Don't have an account? Register now (free) for customized features, flight alerts, and more!